<?xml version="1.0" encoding="UTF-8" standalone="no" ?>
<gpx xmlns="http://www.topografix.com/GPX/1/1" xmlns:xsi="http://www.w3.org/2001/XMLSchema-instance" xsi:schemaLocation="http://www.topografix.com/GPX/1/1 http://www.topografix.com/GPX/1/1/gpx.xsd" version="1.1" creator="VisuGPX - https://www.visugpx.com">
  <metadata>
    <name>Mont Tendre (Suisse)</name>
    <desc><![CDATA[Balade au Mont Tendre]]></desc>
  </metadata>
  <trk>
    <name><![CDATA[ACTIVE LOG]]></name>
    <trkseg>
      <trkpt lat="46.61264" lon="6.2706">
        <ele>102.037109</ele>
        <time>2014-06-11T09:17:36Z</time>
      </trkpt>
      <trkpt lat="46.61259" lon="6.27066">
        <ele>101.556396</ele>
        <time>2014-06-11T09:17:44Z</time>
      </trkpt>
      <trkpt lat="46.61256" lon="6.27075">
        <ele>102.037109</ele>
        <time>2014-06-11T09:17:51Z</time>
      </trkpt>
      <trkpt lat="46.61254" lon="6.27081">
        <ele>102.5177</ele>
        <time>2014-06-11T09:17:55Z</time>
      </trkpt>
      <trkpt lat="46.61252" lon="6.27095">
        <ele>104.44043</ele>
        <time>2014-06-11T09:18:07Z</time>
      </trkpt>
      <trkpt lat="46.61253" lon="6.27096">
        <ele>105.401733</ele>
        <time>2014-06-11T09:18:09Z</time>
      </trkpt>
      <trkpt lat="46.61253" lon="6.271">
        <ele>106.843628</ele>
        <time>2014-06-11T09:18:12Z</time>
      </trkpt>
      <trkpt lat="46.61259" lon="6.27104">
        <ele>109.727661</ele>
        <time>2014-06-11T09:18:18Z</time>
      </trkpt>
      <trkpt lat="46.6126" lon="6.27109">
        <ele>111.650269</ele>
        <time>2014-06-11T09:18:21Z</time>
      </trkpt>
      <trkpt lat="46.61267" lon="6.27115">
        <ele>115.495605</ele>
        <time>2014-06-11T09:18:27Z</time>
      </trkpt>
      <trkpt lat="46.61276" lon="6.27128">
        <ele>126.550659</ele>
        <time>2014-06-11T09:18:40Z</time>
      </trkpt>
      <trkpt lat="46.61284" lon="6.27143">
        <ele>136.16394</ele>
        <time>2014-06-11T09:18:51Z</time>
      </trkpt>
      <trkpt lat="46.61288" lon="6.2715">
        <ele>140.009155</ele>
        <time>2014-06-11T09:18:56Z</time>
      </trkpt>
      <trkpt lat="46.61293" lon="6.27168">
        <ele>151.064209</ele>
        <time>2014-06-11T09:19:09Z</time>
      </trkpt>
      <trkpt lat="46.61297" lon="6.27185">
        <ele>161.638916</ele>
        <time>2014-06-11T09:19:21Z</time>
      </trkpt>
      <trkpt lat="46.61298" lon="6.27186">
        <ele>162.600098</ele>
        <time>2014-06-11T09:19:22Z</time>
      </trkpt>
      <trkpt lat="46.61299" lon="6.27188">
        <ele>164.042114</ele>
        <time>2014-06-11T09:19:25Z</time>
      </trkpt>
      <trkpt lat="46.61301" lon="6.27192">
        <ele>167.887329</ele>
        <time>2014-06-11T09:19:29Z</time>
      </trkpt>
      <trkpt lat="46.6131" lon="6.27219">
        <ele>190.478394</ele>
        <time>2014-06-11T09:19:42Z</time>
      </trkpt>
      <trkpt lat="46.61509" lon="6.27511">
        <ele>1105.172852</ele>
        <time>2014-06-11T09:19:58Z</time>
      </trkpt>
      <trkpt lat="46.61533" lon="6.27517">
        <ele>1166.697266</ele>
        <time>2014-06-11T09:20:08Z</time>
      </trkpt>
      <trkpt lat="46.61534" lon="6.27521">
        <ele>1167.177979</ele>
        <time>2014-06-11T09:20:11Z</time>
      </trkpt>
      <trkpt lat="46.6154" lon="6.27537">
        <ele>1171.984375</ele>
        <time>2014-06-11T09:20:25Z</time>
      </trkpt>
      <trkpt lat="46.61545" lon="6.27544">
        <ele>1173.906982</ele>
        <time>2014-06-11T09:20:31Z</time>
      </trkpt>
      <trkpt lat="46.61553" lon="6.27558">
        <ele>1180.155762</ele>
        <time>2014-06-11T09:20:39Z</time>
      </trkpt>
      <trkpt lat="46.61566" lon="6.27566">
        <ele>1184.481689</ele>
        <time>2014-06-11T09:20:45Z</time>
      </trkpt>
      <trkpt lat="46.61569" lon="6.27571">
        <ele>1186.404297</ele>
        <time>2014-06-11T09:20:48Z</time>
      </trkpt>
      <trkpt lat="46.6157" lon="6.27574">
        <ele>1188.807617</ele>
        <time>2014-06-11T09:20:51Z</time>
      </trkpt>
      <trkpt lat="46.61568" lon="6.27589">
        <ele>1184.962402</ele>
        <time>2014-06-11T09:21:02Z</time>
      </trkpt>
      <trkpt lat="46.61573" lon="6.27603">
        <ele>1188.326904</ele>
        <time>2014-06-11T09:21:13Z</time>
      </trkpt>
      <trkpt lat="46.61577" lon="6.27611">
        <ele>1188.807617</ele>
        <time>2014-06-11T09:21:19Z</time>
      </trkpt>
      <trkpt lat="46.61584" lon="6.27625">
        <ele>1192.172119</ele>
        <time>2014-06-11T09:21:29Z</time>
      </trkpt>
      <trkpt lat="46.61585" lon="6.27627">
        <ele>1193.614014</ele>
        <time>2014-06-11T09:21:31Z</time>
      </trkpt>
      <trkpt lat="46.61585" lon="6.2764">
        <ele>1195.536621</ele>
        <time>2014-06-11T09:21:41Z</time>
      </trkpt>
      <trkpt lat="46.61588" lon="6.27653">
        <ele>1195.536621</ele>
        <time>2014-06-11T09:21:51Z</time>
      </trkpt>
      <trkpt lat="46.61593" lon="6.27665">
        <ele>1198.420654</ele>
        <time>2014-06-11T09:22:00Z</time>
      </trkpt>
      <trkpt lat="46.61596" lon="6.27676">
        <ele>1202.265869</ele>
        <time>2014-06-11T09:22:10Z</time>
      </trkpt>
      <trkpt lat="46.61602" lon="6.27695">
        <ele>1204.188721</ele>
        <time>2014-06-11T09:22:25Z</time>
      </trkpt>
      <trkpt lat="46.61604" lon="6.27698">
        <ele>1204.669189</ele>
        <time>2014-06-11T09:22:26Z</time>
      </trkpt>
      <trkpt lat="46.6161" lon="6.27714">
        <ele>1208.033936</ele>
        <time>2014-06-11T09:22:39Z</time>
      </trkpt>
      <trkpt lat="46.61617" lon="6.27735">
        <ele>1213.321289</ele>
        <time>2014-06-11T09:22:57Z</time>
      </trkpt>
      <trkpt lat="46.61617" lon="6.27735">
        <ele>1213.321289</ele>
        <time>2014-06-11T09:22:58Z</time>
      </trkpt>
      <trkpt lat="46.61614" lon="6.27752">
        <ele>1213.321289</ele>
        <time>2014-06-11T09:23:07Z</time>
      </trkpt>
      <trkpt lat="46.61613" lon="6.27764">
        <ele>1209.47583</ele>
        <time>2014-06-11T09:23:23Z</time>
      </trkpt>
      <trkpt lat="46.61634" lon="6.27793">
        <ele>1215.243896</ele>
        <time>2014-06-11T09:23:56Z</time>
      </trkpt>
      <trkpt lat="46.61635" lon="6.27794">
        <ele>1215.724609</ele>
        <time>2014-06-11T09:23:58Z</time>
      </trkpt>
      <trkpt lat="46.61646" lon="6.27815">
        <ele>1218.127686</ele>
        <time>2014-06-11T09:24:15Z</time>
      </trkpt>
      <trkpt lat="46.61656" lon="6.27858">
        <ele>1224.376221</ele>
        <time>2014-06-11T09:24:47Z</time>
      </trkpt>
      <trkpt lat="46.61665" lon="6.27902">
        <ele>1232.066895</ele>
        <time>2014-06-11T09:25:18Z</time>
      </trkpt>
      <trkpt lat="46.61667" lon="6.27934">
        <ele>1235.912109</ele>
        <time>2014-06-11T09:25:41Z</time>
      </trkpt>
      <trkpt lat="46.61676" lon="6.27958">
        <ele>1239.276611</ele>
        <time>2014-06-11T09:25:58Z</time>
      </trkpt>
      <trkpt lat="46.6168" lon="6.27966">
        <ele>1239.757324</ele>
        <time>2014-06-11T09:26:03Z</time>
      </trkpt>
      <trkpt lat="46.61697" lon="6.27985">
        <ele>1240.238037</ele>
        <time>2014-06-11T09:26:19Z</time>
      </trkpt>
      <trkpt lat="46.61703" lon="6.28002">
        <ele>1243.121826</ele>
        <time>2014-06-11T09:26:33Z</time>
      </trkpt>
      <trkpt lat="46.61703" lon="6.28015">
        <ele>1246.967285</ele>
        <time>2014-06-11T09:26:46Z</time>
      </trkpt>
      <trkpt lat="46.61714" lon="6.28038">
        <ele>1249.370605</ele>
        <time>2014-06-11T09:27:02Z</time>
      </trkpt>
      <trkpt lat="46.61728" lon="6.28052">
        <ele>1250.332031</ele>
        <time>2014-06-11T09:27:14Z</time>
      </trkpt>
      <trkpt lat="46.61736" lon="6.28064">
        <ele>1250.332031</ele>
        <time>2014-06-11T09:27:25Z</time>
      </trkpt>
      <trkpt lat="46.61739" lon="6.28066">
        <ele>1250.332031</ele>
        <time>2014-06-11T09:27:28Z</time>
      </trkpt>
      <trkpt lat="46.61762" lon="6.28089">
        <ele>1252.254395</ele>
        <time>2014-06-11T09:27:56Z</time>
      </trkpt>
      <trkpt lat="46.61781" lon="6.28104">
        <ele>1254.177246</ele>
        <time>2014-06-11T09:28:15Z</time>
      </trkpt>
      <trkpt lat="46.61791" lon="6.28107">
        <ele>1256.099609</ele>
        <time>2014-06-11T09:28:24Z</time>
      </trkpt>
      <trkpt lat="46.61794" lon="6.28107">
        <ele>1256.099609</ele>
        <time>2014-06-11T09:28:26Z</time>
      </trkpt>
      <trkpt lat="46.61808" lon="6.28118">
        <ele>1260.425781</ele>
        <time>2014-06-11T09:28:39Z</time>
      </trkpt>
      <trkpt lat="46.61818" lon="6.28129">
        <ele>1266.674316</ele>
        <time>2014-06-11T09:28:51Z</time>
      </trkpt>
      <trkpt lat="46.61827" lon="6.2814">
        <ele>1264.270996</ele>
        <time>2014-06-11T09:29:02Z</time>
      </trkpt>
      <trkpt lat="46.61835" lon="6.28156">
        <ele>1270.038818</ele>
        <time>2014-06-11T09:29:15Z</time>
      </trkpt>
      <trkpt lat="46.61838" lon="6.28157">
        <ele>1270.519531</ele>
        <time>2014-06-11T09:29:17Z</time>
      </trkpt>
      <trkpt lat="46.61847" lon="6.28176">
        <ele>1276.768311</ele>
        <time>2014-06-11T09:29:31Z</time>
      </trkpt>
      <trkpt lat="46.61834" lon="6.28193">
        <ele>1260.906494</ele>
        <time>2014-06-11T09:29:45Z</time>
      </trkpt>
      <trkpt lat="46.61836" lon="6.28197">
        <ele>1259.944824</ele>
        <time>2014-06-11T09:29:48Z</time>
      </trkpt>
      <trkpt lat="46.61839" lon="6.28201">
        <ele>1257.541748</ele>
        <time>2014-06-11T09:29:52Z</time>
      </trkpt>
      <trkpt lat="46.61846" lon="6.28216">
        <ele>1254.177246</ele>
        <time>2014-06-11T09:30:00Z</time>
      </trkpt>
      <trkpt lat="46.61853" lon="6.28224">
        <ele>1253.696533</ele>
        <time>2014-06-11T09:30:07Z</time>
      </trkpt>
      <trkpt lat="46.6187" lon="6.2824">
        <ele>1257.541748</ele>
        <time>2014-06-11T09:30:22Z</time>
      </trkpt>
      <trkpt lat="46.61889" lon="6.28248">
        <ele>1263.309814</ele>
        <time>2014-06-11T09:30:35Z</time>
      </trkpt>
      <trkpt lat="46.61897" lon="6.28259">
        <ele>1266.193604</ele>
        <time>2014-06-11T09:30:45Z</time>
      </trkpt>
      <trkpt lat="46.61898" lon="6.28262">
        <ele>1267.155029</ele>
        <time>2014-06-11T09:30:48Z</time>
      </trkpt>
      <trkpt lat="46.61908" lon="6.28279">
        <ele>1272.922852</ele>
        <time>2014-06-11T09:31:01Z</time>
      </trkpt>
      <trkpt lat="46.61914" lon="6.28285">
        <ele>1274.845459</ele>
        <time>2014-06-11T09:31:06Z</time>
      </trkpt>
      <trkpt lat="46.61921" lon="6.28305">
        <ele>1282.536133</ele>
        <time>2014-06-11T09:31:20Z</time>
      </trkpt>
      <trkpt lat="46.61929" lon="6.28331">
        <ele>1282.536133</ele>
        <time>2014-06-11T09:31:32Z</time>
      </trkpt>
      <trkpt lat="46.61931" lon="6.28328">
        <ele>1282.536133</ele>
        <time>2014-06-11T09:31:33Z</time>
      </trkpt>
      <trkpt lat="46.61944" lon="6.28338">
        <ele>1283.978027</ele>
        <time>2014-06-11T09:31:46Z</time>
      </trkpt>
      <trkpt lat="46.61947" lon="6.2834">
        <ele>1281.574707</ele>
        <time>2014-06-11T09:31:58Z</time>
      </trkpt>
      <trkpt lat="46.61948" lon="6.28362">
        <ele>1269.077637</ele>
        <time>2014-06-11T09:32:15Z</time>
      </trkpt>
      <trkpt lat="46.61954" lon="6.28368">
        <ele>1255.619141</ele>
        <time>2014-06-11T09:32:30Z</time>
      </trkpt>
      <trkpt lat="46.61963" lon="6.2839">
        <ele>1254.177246</ele>
        <time>2014-06-11T09:32:48Z</time>
      </trkpt>
      <trkpt lat="46.61968" lon="6.28408">
        <ele>1255.138428</ele>
        <time>2014-06-11T09:32:59Z</time>
      </trkpt>
      <trkpt lat="46.61985" lon="6.28438">
        <ele>1257.061035</ele>
        <time>2014-06-11T09:33:22Z</time>
      </trkpt>
      <trkpt lat="46.62005" lon="6.28469">
        <ele>1259.464355</ele>
        <time>2014-06-11T09:33:47Z</time>
      </trkpt>
      <trkpt lat="46.62011" lon="6.28481">
        <ele>1261.387207</ele>
        <time>2014-06-11T09:33:54Z</time>
      </trkpt>
      <trkpt lat="46.62017" lon="6.28501">
        <ele>1268.116211</ele>
        <time>2014-06-11T09:34:07Z</time>
      </trkpt>
      <trkpt lat="46.62026" lon="6.28516">
        <ele>1274.364746</ele>
        <time>2014-06-11T09:34:17Z</time>
      </trkpt>
      <trkpt lat="46.62031" lon="6.28524">
        <ele>1275.806641</ele>
        <time>2014-06-11T09:34:28Z</time>
      </trkpt>
      <trkpt lat="46.6204" lon="6.28546">
        <ele>1276.768311</ele>
        <time>2014-06-11T09:34:43Z</time>
      </trkpt>
      <trkpt lat="46.62039" lon="6.28557">
        <ele>1277.249023</ele>
        <time>2014-06-11T09:34:45Z</time>
      </trkpt>
      <trkpt lat="46.62049" lon="6.28588">
        <ele>1277.249023</ele>
        <time>2014-06-11T09:35:12Z</time>
      </trkpt>
      <trkpt lat="46.62057" lon="6.28648">
        <ele>1269.55835</ele>
        <time>2014-06-11T09:35:48Z</time>
      </trkpt>
      <trkpt lat="46.6206" lon="6.28654">
        <ele>1267.635498</ele>
        <time>2014-06-11T09:35:51Z</time>
      </trkpt>
      <trkpt lat="46.62061" lon="6.28657">
        <ele>1267.635498</ele>
        <time>2014-06-11T09:35:53Z</time>
      </trkpt>
      <trkpt lat="46.62065" lon="6.28672">
        <ele>1264.751709</ele>
        <time>2014-06-11T09:36:03Z</time>
      </trkpt>
      <trkpt lat="46.62071" lon="6.28691">
        <ele>1262.829102</ele>
        <time>2014-06-11T09:36:17Z</time>
      </trkpt>
      <trkpt lat="46.62071" lon="6.28691">
        <ele>1258.50293</ele>
        <time>2014-06-11T09:36:40Z</time>
      </trkpt>
      <trkpt lat="46.62083" lon="6.28716">
        <ele>1254.657715</ele>
        <time>2014-06-11T09:37:01Z</time>
      </trkpt>
      <trkpt lat="46.6209" lon="6.28735">
        <ele>1252.254395</ele>
        <time>2014-06-11T09:37:18Z</time>
      </trkpt>
      <trkpt lat="46.62097" lon="6.28751">
        <ele>1248.889893</ele>
        <time>2014-06-11T09:37:31Z</time>
      </trkpt>
      <trkpt lat="46.621" lon="6.2876">
        <ele>1246.967285</ele>
        <time>2014-06-11T09:37:37Z</time>
      </trkpt>
      <trkpt lat="46.62104" lon="6.28777">
        <ele>1243.121826</ele>
        <time>2014-06-11T09:37:51Z</time>
      </trkpt>
      <trkpt lat="46.62106" lon="6.28781">
        <ele>1242.641357</ele>
        <time>2014-06-11T09:37:54Z</time>
      </trkpt>
      <trkpt lat="46.62111" lon="6.28801">
        <ele>1239.276611</ele>
        <time>2014-06-11T09:38:07Z</time>
      </trkpt>
      <trkpt lat="46.62118" lon="6.28819">
        <ele>1238.31543</ele>
        <time>2014-06-11T09:38:21Z</time>
      </trkpt>
      <trkpt lat="46.62123" lon="6.28838">
        <ele>1241.199219</ele>
        <time>2014-06-11T09:39:43Z</time>
      </trkpt>
      <trkpt lat="46.62123" lon="6.2884">
        <ele>1241.199219</ele>
        <time>2014-06-11T09:39:45Z</time>
      </trkpt>
      <trkpt lat="46.62122" lon="6.28845">
        <ele>1240.718506</ele>
        <time>2014-06-11T09:39:48Z</time>
      </trkpt>
      <trkpt lat="46.62123" lon="6.28851">
        <ele>1240.238037</ele>
        <time>2014-06-11T09:39:53Z</time>
      </trkpt>
      <trkpt lat="46.62125" lon="6.28873">
        <ele>1240.238037</ele>
        <time>2014-06-11T09:40:07Z</time>
      </trkpt>
      <trkpt lat="46.6213" lon="6.2889">
        <ele>1241.199219</ele>
        <time>2014-06-11T09:40:18Z</time>
      </trkpt>
      <trkpt lat="46.62137" lon="6.28903">
        <ele>1242.641357</ele>
        <time>2014-06-11T09:40:28Z</time>
      </trkpt>
      <trkpt lat="46.62142" lon="6.28918">
        <ele>1246.006104</ele>
        <time>2014-06-11T09:40:40Z</time>
      </trkpt>
      <trkpt lat="46.62143" lon="6.28925">
        <ele>1247.447998</ele>
        <time>2014-06-11T09:40:45Z</time>
      </trkpt>
      <trkpt lat="46.62143" lon="6.28928">
        <ele>1247.447998</ele>
        <time>2014-06-11T09:40:47Z</time>
      </trkpt>
      <trkpt lat="46.62145" lon="6.28937">
        <ele>1248.40918</ele>
        <time>2014-06-11T09:40:54Z</time>
      </trkpt>
      <trkpt lat="46.62145" lon="6.28949">
        <ele>1249.851318</ele>
        <time>2014-06-11T09:41:02Z</time>
      </trkpt>
      <trkpt lat="46.62147" lon="6.28968">
        <ele>1252.735107</ele>
        <time>2014-06-11T09:41:14Z</time>
      </trkpt>
      <trkpt lat="46.62147" lon="6.28983">
        <ele>1252.735107</ele>
        <time>2014-06-11T09:41:25Z</time>
      </trkpt>
      <trkpt lat="46.62145" lon="6.29001">
        <ele>1255.138428</ele>
        <time>2014-06-11T09:41:37Z</time>
      </trkpt>
      <trkpt lat="46.62145" lon="6.29002">
        <ele>1255.619141</ele>
        <time>2014-06-11T09:41:38Z</time>
      </trkpt>
      <trkpt lat="46.62144" lon="6.29008">
        <ele>1256.580322</ele>
        <time>2014-06-11T09:41:43Z</time>
      </trkpt>
      <trkpt lat="46.62146" lon="6.2902">
        <ele>1257.541748</ele>
        <time>2014-06-11T09:41:51Z</time>
      </trkpt>
      <trkpt lat="46.62147" lon="6.29025">
        <ele>1258.022461</ele>
        <time>2014-06-11T09:41:55Z</time>
      </trkpt>
      <trkpt lat="46.62146" lon="6.2903">
        <ele>1258.983643</ele>
        <time>2014-06-11T09:41:58Z</time>
      </trkpt>
      <trkpt lat="46.62148" lon="6.29036">
        <ele>1259.944824</ele>
        <time>2014-06-11T09:42:01Z</time>
      </trkpt>
      <trkpt lat="46.62151" lon="6.29043">
        <ele>1260.425781</ele>
        <time>2014-06-11T09:42:07Z</time>
      </trkpt>
      <trkpt lat="46.62153" lon="6.29059">
        <ele>1261.387207</ele>
        <time>2014-06-11T09:42:18Z</time>
      </trkpt>
      <trkpt lat="46.62158" lon="6.29078">
        <ele>1262.829102</ele>
        <time>2014-06-11T09:42:31Z</time>
      </trkpt>
      <trkpt lat="46.62159" lon="6.29084">
        <ele>1263.309814</ele>
        <time>2014-06-11T09:42:36Z</time>
      </trkpt>
      <trkpt lat="46.62164" lon="6.2911">
        <ele>1263.309814</ele>
        <time>2014-06-11T09:42:51Z</time>
      </trkpt>
      <trkpt lat="46.62164" lon="6.29115">
        <ele>1264.270996</ele>
        <time>2014-06-11T09:42:54Z</time>
      </trkpt>
      <trkpt lat="46.62161" lon="6.29129">
        <ele>1264.270996</ele>
        <time>2014-06-11T09:43:03Z</time>
      </trkpt>
      <trkpt lat="46.62161" lon="6.29131">
        <ele>1264.751709</ele>
        <time>2014-06-11T09:43:04Z</time>
      </trkpt>
      <trkpt lat="46.62156" lon="6.29139">
        <ele>1266.674316</ele>
        <time>2014-06-11T09:43:09Z</time>
      </trkpt>
      <trkpt lat="46.62146" lon="6.29155">
        <ele>1271.961426</ele>
        <time>2014-06-11T09:43:23Z</time>
      </trkpt>
      <trkpt lat="46.62136" lon="6.29161">
        <ele>1272.442139</ele>
        <time>2014-06-11T09:43:35Z</time>
      </trkpt>
      <trkpt lat="46.62129" lon="6.29173">
        <ele>1270.038818</ele>
        <time>2014-06-11T09:43:48Z</time>
      </trkpt>
      <trkpt lat="46.62123" lon="6.29181">
        <ele>1268.596924</ele>
        <time>2014-06-11T09:43:59Z</time>
      </trkpt>
      <trkpt lat="46.62118" lon="6.29185">
        <ele>1270.519531</ele>
        <time>2014-06-11T09:44:08Z</time>
      </trkpt>
      <trkpt lat="46.62117" lon="6.29187">
        <ele>1271.480713</ele>
        <time>2014-06-11T09:44:10Z</time>
      </trkpt>
      <trkpt lat="46.62108" lon="6.29195">
        <ele>1274.845459</ele>
        <time>2014-06-11T09:44:22Z</time>
      </trkpt>
      <trkpt lat="46.62104" lon="6.29194">
        <ele>1276.768311</ele>
        <time>2014-06-11T09:44:27Z</time>
      </trkpt>
      <trkpt lat="46.62091" lon="6.29198">
        <ele>1280.613525</ele>
        <time>2014-06-11T09:44:41Z</time>
      </trkpt>
      <trkpt lat="46.62081" lon="6.29197">
        <ele>1283.978027</ele>
        <time>2014-06-11T09:44:53Z</time>
      </trkpt>
      <trkpt lat="46.62071" lon="6.29197">
        <ele>1286.381348</ele>
        <time>2014-06-11T09:45:03Z</time>
      </trkpt>
      <trkpt lat="46.62062" lon="6.29196">
        <ele>1288.784668</ele>
        <time>2014-06-11T09:45:13Z</time>
      </trkpt>
      <trkpt lat="46.6205" lon="6.29197">
        <ele>1290.226563</ele>
        <time>2014-06-11T09:45:26Z</time>
      </trkpt>
      <trkpt lat="46.62041" lon="6.29197">
        <ele>1292.149414</ele>
        <time>2014-06-11T09:45:37Z</time>
      </trkpt>
      <trkpt lat="46.62031" lon="6.29206">
        <ele>1294.55249</ele>
        <time>2014-06-11T09:45:49Z</time>
      </trkpt>
      <trkpt lat="46.62021" lon="6.29209">
        <ele>1297.436523</ele>
        <time>2014-06-11T09:45:59Z</time>
      </trkpt>
      <trkpt lat="46.62011" lon="6.29212">
        <ele>1297.917236</ele>
        <time>2014-06-11T09:46:12Z</time>
      </trkpt>
      <trkpt lat="46.61998" lon="6.29217">
        <ele>1299.359131</ele>
        <time>2014-06-11T09:46:24Z</time>
      </trkpt>
      <trkpt lat="46.61984" lon="6.2922">
        <ele>1298.397705</ele>
        <time>2014-06-11T09:46:43Z</time>
      </trkpt>
      <trkpt lat="46.6198" lon="6.29221">
        <ele>1297.917236</ele>
        <time>2014-06-11T09:46:57Z</time>
      </trkpt>
      <trkpt lat="46.6198" lon="6.29221">
        <ele>1298.397705</ele>
        <time>2014-06-11T09:47:00Z</time>
      </trkpt>
      <trkpt lat="46.61975" lon="6.29212">
        <ele>1296.955811</ele>
        <time>2014-06-11T09:47:08Z</time>
      </trkpt>
      <trkpt lat="46.61972" lon="6.29208">
        <ele>1294.072021</ele>
        <time>2014-06-11T09:47:14Z</time>
      </trkpt>
      <trkpt lat="46.61967" lon="6.29212">
        <ele>1288.303955</ele>
        <time>2014-06-11T09:47:35Z</time>
      </trkpt>
      <trkpt lat="46.61966" lon="6.29213">
        <ele>1286.861816</ele>
        <time>2014-06-11T09:48:42Z</time>
      </trkpt>
      <trkpt lat="46.61958" lon="6.29237">
        <ele>1287.342529</ele>
        <time>2014-06-11T09:48:59Z</time>
      </trkpt>
      <trkpt lat="46.61945" lon="6.29259">
        <ele>1287.342529</ele>
        <time>2014-06-11T09:49:19Z</time>
      </trkpt>
      <trkpt lat="46.61941" lon="6.29267">
        <ele>1289.265137</ele>
        <time>2014-06-11T09:49:27Z</time>
      </trkpt>
      <trkpt lat="46.61938" lon="6.29268">
        <ele>1289.74585</ele>
        <time>2014-06-11T09:49:50Z</time>
      </trkpt>
      <trkpt lat="46.61937" lon="6.29268">
        <ele>1290.707031</ele>
        <time>2014-06-11T09:50:11Z</time>
      </trkpt>
      <trkpt lat="46.61936" lon="6.29267">
        <ele>1291.668457</ele>
        <time>2014-06-11T09:50:44Z</time>
      </trkpt>
      <trkpt lat="46.6193" lon="6.29281">
        <ele>1292.630127</ele>
        <time>2014-06-11T09:52:01Z</time>
      </trkpt>
      <trkpt lat="46.61879" lon="6.29323">
        <ele>1302.723633</ele>
        <time>2014-06-11T09:52:57Z</time>
      </trkpt>
      <trkpt lat="46.61864" lon="6.29331">
        <ele>1304.165771</ele>
        <time>2014-06-11T09:53:11Z</time>
      </trkpt>
      <trkpt lat="46.61852" lon="6.29347">
        <ele>1306.088135</ele>
        <time>2014-06-11T09:53:23Z</time>
      </trkpt>
      <trkpt lat="46.6184" lon="6.29363">
        <ele>1305.607666</ele>
        <time>2014-06-11T09:55:34Z</time>
      </trkpt>
      <trkpt lat="46.61843" lon="6.29361">
        <ele>1302.24292</ele>
        <time>2014-06-11T09:55:49Z</time>
      </trkpt>
      <trkpt lat="46.61846" lon="6.2936">
        <ele>1300.320557</ele>
        <time>2014-06-11T09:56:00Z</time>
      </trkpt>
      <trkpt lat="46.6185" lon="6.29357">
        <ele>1297.917236</ele>
        <time>2014-06-11T09:56:27Z</time>
      </trkpt>
      <trkpt lat="46.61834" lon="6.29393">
        <ele>1307.049561</ele>
        <time>2014-06-11T09:56:52Z</time>
      </trkpt>
      <trkpt lat="46.61826" lon="6.29407">
        <ele>1307.530273</ele>
        <time>2014-06-11T09:57:02Z</time>
      </trkpt>
      <trkpt lat="46.61806" lon="6.29458">
        <ele>1308.01123</ele>
        <time>2014-06-11T09:57:25Z</time>
      </trkpt>
      <trkpt lat="46.61794" lon="6.29483">
        <ele>1309.453125</ele>
        <time>2014-06-11T09:57:46Z</time>
      </trkpt>
      <trkpt lat="46.61778" lon="6.29504">
        <ele>1312.817627</ele>
        <time>2014-06-11T09:58:08Z</time>
      </trkpt>
      <trkpt lat="46.61759" lon="6.2953">
        <ele>1315.70166</ele>
        <time>2014-06-11T09:58:36Z</time>
      </trkpt>
      <trkpt lat="46.61727" lon="6.2956">
        <ele>1320.027344</ele>
        <time>2014-06-11T09:59:18Z</time>
      </trkpt>
      <trkpt lat="46.61708" lon="6.29614">
        <ele>1322.430664</ele>
        <time>2014-06-11T09:59:52Z</time>
      </trkpt>
      <trkpt lat="46.61708" lon="6.29641">
        <ele>1324.353516</ele>
        <time>2014-06-11T10:00:09Z</time>
      </trkpt>
      <trkpt lat="46.61708" lon="6.29649">
        <ele>1324.834229</ele>
        <time>2014-06-11T10:00:13Z</time>
      </trkpt>
      <trkpt lat="46.61709" lon="6.29663">
        <ele>1325.79541</ele>
        <time>2014-06-11T10:00:20Z</time>
      </trkpt>
      <trkpt lat="46.61713" lon="6.29685">
        <ele>1327.718018</ele>
        <time>2014-06-11T10:00:34Z</time>
      </trkpt>
      <trkpt lat="46.61705" lon="6.2971">
        <ele>1330.602051</ele>
        <time>2014-06-11T10:00:53Z</time>
      </trkpt>
      <trkpt lat="46.61684" lon="6.29725">
        <ele>1333.966553</ele>
        <time>2014-06-11T10:01:17Z</time>
      </trkpt>
      <trkpt lat="46.6167" lon="6.29742">
        <ele>1335.88916</ele>
        <time>2014-06-11T10:01:30Z</time>
      </trkpt>
      <trkpt lat="46.61667" lon="6.29757">
        <ele>1335.88916</ele>
        <time>2014-06-11T10:02:00Z</time>
      </trkpt>
      <trkpt lat="46.6166" lon="6.29753">
        <ele>1342.618652</ele>
        <time>2014-06-11T10:03:56Z</time>
      </trkpt>
      <trkpt lat="46.61653" lon="6.29758">
        <ele>1343.099121</ele>
        <time>2014-06-11T10:04:07Z</time>
      </trkpt>
      <trkpt lat="46.61631" lon="6.29759">
        <ele>1344.541016</ele>
        <time>2014-06-11T10:04:24Z</time>
      </trkpt>
      <trkpt lat="46.61617" lon="6.29749">
        <ele>1345.021729</ele>
        <time>2014-06-11T10:04:37Z</time>
      </trkpt>
      <trkpt lat="46.61616" lon="6.29748">
        <ele>1344.541016</ele>
        <time>2014-06-11T10:04:38Z</time>
      </trkpt>
      <trkpt lat="46.61599" lon="6.29734">
        <ele>1348.866943</ele>
        <time>2014-06-11T10:04:57Z</time>
      </trkpt>
      <trkpt lat="46.61575" lon="6.29725">
        <ele>1351.270264</ele>
        <time>2014-06-11T10:05:15Z</time>
      </trkpt>
      <trkpt lat="46.61562" lon="6.2972">
        <ele>1352.231445</ele>
        <time>2014-06-11T10:05:25Z</time>
      </trkpt>
      <trkpt lat="46.61544" lon="6.29716">
        <ele>1352.231445</ele>
        <time>2014-06-11T10:05:38Z</time>
      </trkpt>
      <trkpt lat="46.61541" lon="6.29715">
        <ele>1352.231445</ele>
        <time>2014-06-11T10:05:42Z</time>
      </trkpt>
      <trkpt lat="46.61528" lon="6.29715">
        <ele>1351.750977</ele>
        <time>2014-06-11T10:05:54Z</time>
      </trkpt>
      <trkpt lat="46.61515" lon="6.29716">
        <ele>1349.347656</ele>
        <time>2014-06-11T10:06:05Z</time>
      </trkpt>
      <trkpt lat="46.61513" lon="6.29715">
        <ele>1349.347656</ele>
        <time>2014-06-11T10:06:06Z</time>
      </trkpt>
      <trkpt lat="46.61495" lon="6.29718">
        <ele>1347.425049</ele>
        <time>2014-06-11T10:06:20Z</time>
      </trkpt>
      <trkpt lat="46.61478" lon="6.29719">
        <ele>1345.983154</ele>
        <time>2014-06-11T10:06:34Z</time>
      </trkpt>
      <trkpt lat="46.61457" lon="6.2972">
        <ele>1343.099121</ele>
        <time>2014-06-11T10:06:50Z</time>
      </trkpt>
      <trkpt lat="46.61454" lon="6.2972">
        <ele>1343.579834</ele>
        <time>2014-06-11T10:06:52Z</time>
      </trkpt>
      <trkpt lat="46.61448" lon="6.29721">
        <ele>1342.618652</ele>
        <time>2014-06-11T10:06:59Z</time>
      </trkpt>
      <trkpt lat="46.61431" lon="6.29727">
        <ele>1343.099121</ele>
        <time>2014-06-11T10:07:13Z</time>
      </trkpt>
      <trkpt lat="46.61416" lon="6.29739">
        <ele>1343.579834</ele>
        <time>2014-06-11T10:07:26Z</time>
      </trkpt>
      <trkpt lat="46.61403" lon="6.29747">
        <ele>1343.579834</ele>
        <time>2014-06-11T10:07:38Z</time>
      </trkpt>
      <trkpt lat="46.61388" lon="6.2975">
        <ele>1345.502441</ele>
        <time>2014-06-11T10:07:50Z</time>
      </trkpt>
      <trkpt lat="46.61368" lon="6.29751">
        <ele>1343.099121</ele>
        <time>2014-06-11T10:08:06Z</time>
      </trkpt>
      <trkpt lat="46.61354" lon="6.29753">
        <ele>1345.983154</ele>
        <time>2014-06-11T10:08:19Z</time>
      </trkpt>
      <trkpt lat="46.61348" lon="6.29755">
        <ele>1346.463867</ele>
        <time>2014-06-11T10:08:27Z</time>
      </trkpt>
      <trkpt lat="46.61342" lon="6.2977">
        <ele>1347.425049</ele>
        <time>2014-06-11T10:08:38Z</time>
      </trkpt>
      <trkpt lat="46.61328" lon="6.29787">
        <ele>1351.270264</ele>
        <time>2014-06-11T10:08:55Z</time>
      </trkpt>
      <trkpt lat="46.61323" lon="6.29788">
        <ele>1351.750977</ele>
        <time>2014-06-11T10:08:59Z</time>
      </trkpt>
      <trkpt lat="46.61318" lon="6.29788">
        <ele>1352.231445</ele>
        <time>2014-06-11T10:09:03Z</time>
      </trkpt>
      <trkpt lat="46.61306" lon="6.29787">
        <ele>1351.270264</ele>
        <time>2014-06-11T10:09:12Z</time>
      </trkpt>
      <trkpt lat="46.61289" lon="6.29787">
        <ele>1351.270264</ele>
        <time>2014-06-11T10:09:26Z</time>
      </trkpt>
      <trkpt lat="46.6128" lon="6.29789">
        <ele>1351.750977</ele>
        <time>2014-06-11T10:09:33Z</time>
      </trkpt>
      <trkpt lat="46.61274" lon="6.29793">
        <ele>1352.231445</ele>
        <time>2014-06-11T10:09:38Z</time>
      </trkpt>
      <trkpt lat="46.6126" lon="6.29796">
        <ele>1355.115479</ele>
        <time>2014-06-11T10:09:48Z</time>
      </trkpt>
      <trkpt lat="46.61251" lon="6.29796">
        <ele>1356.557617</ele>
        <time>2014-06-11T10:09:55Z</time>
      </trkpt>
      <trkpt lat="46.61241" lon="6.29793">
        <ele>1355.596191</ele>
        <time>2014-06-11T10:10:03Z</time>
      </trkpt>
      <trkpt lat="46.61226" lon="6.29785">
        <ele>1355.596191</ele>
        <time>2014-06-11T10:10:15Z</time>
      </trkpt>
      <trkpt lat="46.61219" lon="6.29772">
        <ele>1354.154297</ele>
        <time>2014-06-11T10:10:25Z</time>
      </trkpt>
      <trkpt lat="46.61215" lon="6.2977">
        <ele>1354.154297</ele>
        <time>2014-06-11T10:10:28Z</time>
      </trkpt>
      <trkpt lat="46.61212" lon="6.29768">
        <ele>1354.154297</ele>
        <time>2014-06-11T10:10:31Z</time>
      </trkpt>
      <trkpt lat="46.61194" lon="6.29766">
        <ele>1355.115479</ele>
        <time>2014-06-11T10:10:44Z</time>
      </trkpt>
      <trkpt lat="46.61175" lon="6.29762">
        <ele>1354.154297</ele>
        <time>2014-06-11T10:11:00Z</time>
      </trkpt>
      <trkpt lat="46.61162" lon="6.29753">
        <ele>1351.750977</ele>
        <time>2014-06-11T10:11:11Z</time>
      </trkpt>
      <trkpt lat="46.61156" lon="6.29748">
        <ele>1350.309082</ele>
        <time>2014-06-11T10:11:16Z</time>
      </trkpt>
      <trkpt lat="46.61144" lon="6.29741">
        <ele>1352.231445</ele>
        <time>2014-06-11T10:11:27Z</time>
      </trkpt>
      <trkpt lat="46.61133" lon="6.2974">
        <ele>1354.634766</ele>
        <time>2014-06-11T10:11:37Z</time>
      </trkpt>
      <trkpt lat="46.61118" lon="6.2974">
        <ele>1354.154297</ele>
        <time>2014-06-11T10:11:49Z</time>
      </trkpt>
      <trkpt lat="46.61107" lon="6.29736">
        <ele>1356.076904</ele>
        <time>2014-06-11T10:11:58Z</time>
      </trkpt>
      <trkpt lat="46.61096" lon="6.29732">
        <ele>1354.634766</ele>
        <time>2014-06-11T10:12:07Z</time>
      </trkpt>
      <trkpt lat="46.61093" lon="6.2973">
        <ele>1354.634766</ele>
        <time>2014-06-11T10:12:10Z</time>
      </trkpt>
      <trkpt lat="46.61074" lon="6.29725">
        <ele>1354.634766</ele>
        <time>2014-06-11T10:12:24Z</time>
      </trkpt>
      <trkpt lat="46.61064" lon="6.29727">
        <ele>1353.192871</ele>
        <time>2014-06-11T10:12:33Z</time>
      </trkpt>
      <trkpt lat="46.61062" lon="6.29727">
        <ele>1354.154297</ele>
        <time>2014-06-11T10:12:35Z</time>
      </trkpt>
      <trkpt lat="46.61042" lon="6.29734">
        <ele>1358.960938</ele>
        <time>2014-06-11T10:12:51Z</time>
      </trkpt>
      <trkpt lat="46.61031" lon="6.29742">
        <ele>1360.402832</ele>
        <time>2014-06-11T10:13:02Z</time>
      </trkpt>
      <trkpt lat="46.61024" lon="6.29748">
        <ele>1359.922119</ele>
        <time>2014-06-11T10:13:08Z</time>
      </trkpt>
      <trkpt lat="46.61007" lon="6.2975">
        <ele>1361.844971</ele>
        <time>2014-06-11T10:13:20Z</time>
      </trkpt>
      <trkpt lat="46.60995" lon="6.29752">
        <ele>1360.402832</ele>
        <time>2014-06-11T10:13:32Z</time>
      </trkpt>
      <trkpt lat="46.60986" lon="6.29755">
        <ele>1359.922119</ele>
        <time>2014-06-11T10:13:44Z</time>
      </trkpt>
      <trkpt lat="46.60978" lon="6.2976">
        <ele>1360.883545</ele>
        <time>2014-06-11T10:13:49Z</time>
      </trkpt>
      <trkpt lat="46.60972" lon="6.29762">
        <ele>1360.402832</ele>
        <time>2014-06-11T10:13:54Z</time>
      </trkpt>
      <trkpt lat="46.60956" lon="6.29782">
        <ele>1356.076904</ele>
        <time>2014-06-11T10:14:09Z</time>
      </trkpt>
      <trkpt lat="46.60954" lon="6.29785">
        <ele>1355.596191</ele>
        <time>2014-06-11T10:14:12Z</time>
      </trkpt>
      <trkpt lat="46.60936" lon="6.29803">
        <ele>1358.960938</ele>
        <time>2014-06-11T10:14:29Z</time>
      </trkpt>
      <trkpt lat="46.60928" lon="6.29812">
        <ele>1359.922119</ele>
        <time>2014-06-11T10:14:38Z</time>
      </trkpt>
      <trkpt lat="46.60915" lon="6.2983">
        <ele>1360.402832</ele>
        <time>2014-06-11T10:14:53Z</time>
      </trkpt>
      <trkpt lat="46.60904" lon="6.29845">
        <ele>1362.325439</ele>
        <time>2014-06-11T10:15:06Z</time>
      </trkpt>
      <trkpt lat="46.60895" lon="6.29856">
        <ele>1365.209473</ele>
        <time>2014-06-11T10:15:18Z</time>
      </trkpt>
      <trkpt lat="46.60888" lon="6.29871">
        <ele>1368.093262</ele>
        <time>2014-06-11T10:15:29Z</time>
      </trkpt>
      <trkpt lat="46.60889" lon="6.2988">
        <ele>1371.457764</ele>
        <time>2014-06-11T10:15:40Z</time>
      </trkpt>
      <trkpt lat="46.60888" lon="6.29884">
        <ele>1372.419434</ele>
        <time>2014-06-11T10:16:18Z</time>
      </trkpt>
      <trkpt lat="46.60883" lon="6.29899">
        <ele>1370.977295</ele>
        <time>2014-06-11T10:16:32Z</time>
      </trkpt>
      <trkpt lat="46.60883" lon="6.29909">
        <ele>1370.977295</ele>
        <time>2014-06-11T10:16:38Z</time>
      </trkpt>
      <trkpt lat="46.60879" lon="6.29924">
        <ele>1368.573975</ele>
        <time>2014-06-11T10:16:51Z</time>
      </trkpt>
      <trkpt lat="46.60869" lon="6.29943">
        <ele>1364.248047</ele>
        <time>2014-06-11T10:17:07Z</time>
      </trkpt>
      <trkpt lat="46.60868" lon="6.29959">
        <ele>1365.209473</ele>
        <time>2014-06-11T10:17:18Z</time>
      </trkpt>
      <trkpt lat="46.60868" lon="6.29963">
        <ele>1365.690186</ele>
        <time>2014-06-11T10:17:21Z</time>
      </trkpt>
      <trkpt lat="46.60866" lon="6.2997">
        <ele>1367.13208</ele>
        <time>2014-06-11T10:17:25Z</time>
      </trkpt>
      <trkpt lat="46.60865" lon="6.29974">
        <ele>1366.651367</ele>
        <time>2014-06-11T10:17:28Z</time>
      </trkpt>
      <trkpt lat="46.60857" lon="6.29993">
        <ele>1369.5354</ele>
        <time>2014-06-11T10:17:43Z</time>
      </trkpt>
      <trkpt lat="46.60854" lon="6.3001">
        <ele>1373.861328</ele>
        <time>2014-06-11T10:18:00Z</time>
      </trkpt>
      <trkpt lat="46.60849" lon="6.30032">
        <ele>1374.822754</ele>
        <time>2014-06-11T10:18:14Z</time>
      </trkpt>
      <trkpt lat="46.60849" lon="6.30044">
        <ele>1374.342041</ele>
        <time>2014-06-11T10:18:20Z</time>
      </trkpt>
      <trkpt lat="46.60846" lon="6.30058">
        <ele>1374.822754</ele>
        <time>2014-06-11T10:18:30Z</time>
      </trkpt>
      <trkpt lat="46.60839" lon="6.30086">
        <ele>1375.303223</ele>
        <time>2014-06-11T10:18:56Z</time>
      </trkpt>
      <trkpt lat="46.60829" lon="6.30097">
        <ele>1374.342041</ele>
        <time>2014-06-11T10:19:09Z</time>
      </trkpt>
      <trkpt lat="46.60813" lon="6.30112">
        <ele>1374.822754</ele>
        <time>2014-06-11T10:19:23Z</time>
      </trkpt>
      <trkpt lat="46.60805" lon="6.3012">
        <ele>1373.380859</ele>
        <time>2014-06-11T10:19:30Z</time>
      </trkpt>
      <trkpt lat="46.60802" lon="6.30125">
        <ele>1374.342041</ele>
        <time>2014-06-11T10:19:34Z</time>
      </trkpt>
      <trkpt lat="46.608" lon="6.3013">
        <ele>1375.783936</ele>
        <time>2014-06-11T10:19:37Z</time>
      </trkpt>
      <trkpt lat="46.60787" lon="6.30135">
        <ele>1376.745361</ele>
        <time>2014-06-11T10:19:49Z</time>
      </trkpt>
      <trkpt lat="46.60776" lon="6.30137">
        <ele>1377.706543</ele>
        <time>2014-06-11T10:19:57Z</time>
      </trkpt>
      <trkpt lat="46.60759" lon="6.30146">
        <ele>1381.071289</ele>
        <time>2014-06-11T10:20:13Z</time>
      </trkpt>
      <trkpt lat="46.60744" lon="6.30154">
        <ele>1380.590576</ele>
        <time>2014-06-11T10:20:27Z</time>
      </trkpt>
      <trkpt lat="46.60737" lon="6.30164">
        <ele>1382.993652</ele>
        <time>2014-06-11T10:20:37Z</time>
      </trkpt>
      <trkpt lat="46.60723" lon="6.30178">
        <ele>1385.396973</ele>
        <time>2014-06-11T10:20:52Z</time>
      </trkpt>
      <trkpt lat="46.60716" lon="6.30184">
        <ele>1389.723145</ele>
        <time>2014-06-11T10:21:08Z</time>
      </trkpt>
      <trkpt lat="46.60714" lon="6.30182">
        <ele>1390.684326</ele>
        <time>2014-06-11T10:21:18Z</time>
      </trkpt>
      <trkpt lat="46.60704" lon="6.30182">
        <ele>1389.242432</ele>
        <time>2014-06-11T10:21:28Z</time>
      </trkpt>
      <trkpt lat="46.6069" lon="6.30187">
        <ele>1388.761963</ele>
        <time>2014-06-11T10:21:41Z</time>
      </trkpt>
      <trkpt lat="46.60674" lon="6.30186">
        <ele>1393.087646</ele>
        <time>2014-06-11T10:22:00Z</time>
      </trkpt>
      <trkpt lat="46.60659" lon="6.30202">
        <ele>1395.010254</ele>
        <time>2014-06-11T10:22:17Z</time>
      </trkpt>
      <trkpt lat="46.60651" lon="6.30205">
        <ele>1396.452393</ele>
        <time>2014-06-11T10:22:26Z</time>
      </trkpt>
      <trkpt lat="46.60634" lon="6.3022">
        <ele>1402.700684</ele>
        <time>2014-06-11T10:22:46Z</time>
      </trkpt>
      <trkpt lat="46.60617" lon="6.30236">
        <ele>1403.662109</ele>
        <time>2014-06-11T10:23:02Z</time>
      </trkpt>
      <trkpt lat="46.60615" lon="6.30238">
        <ele>1404.143066</ele>
        <time>2014-06-11T10:23:04Z</time>
      </trkpt>
      <trkpt lat="46.60608" lon="6.30245">
        <ele>1407.507568</ele>
        <time>2014-06-11T10:23:13Z</time>
      </trkpt>
      <trkpt lat="46.60593" lon="6.30256">
        <ele>1408.949463</ele>
        <time>2014-06-11T10:23:28Z</time>
      </trkpt>
      <trkpt lat="46.60541" lon="6.30286">
        <ele>1416.15918</ele>
        <time>2014-06-11T10:24:27Z</time>
      </trkpt>
      <trkpt lat="46.60527" lon="6.30288">
        <ele>1416.15918</ele>
        <time>2014-06-11T10:26:06Z</time>
      </trkpt>
      <trkpt lat="46.60498" lon="6.30285">
        <ele>1418.081787</ele>
        <time>2014-06-11T10:26:33Z</time>
      </trkpt>
      <trkpt lat="46.60484" lon="6.30277">
        <ele>1415.678711</ele>
        <time>2014-06-11T10:26:50Z</time>
      </trkpt>
      <trkpt lat="46.60468" lon="6.30273">
        <ele>1413.755859</ele>
        <time>2014-06-11T10:27:04Z</time>
      </trkpt>
      <trkpt lat="46.60435" lon="6.30269">
        <ele>1419.523926</ele>
        <time>2014-06-11T10:27:39Z</time>
      </trkpt>
      <trkpt lat="46.60421" lon="6.30261">
        <ele>1418.081787</ele>
        <time>2014-06-11T10:27:55Z</time>
      </trkpt>
      <trkpt lat="46.60406" lon="6.30254">
        <ele>1418.081787</ele>
        <time>2014-06-11T10:28:06Z</time>
      </trkpt>
      <trkpt lat="46.60399" lon="6.3024">
        <ele>1419.523926</ele>
        <time>2014-06-11T10:28:19Z</time>
      </trkpt>
      <trkpt lat="46.60395" lon="6.30234">
        <ele>1419.523926</ele>
        <time>2014-06-11T10:28:25Z</time>
      </trkpt>
      <trkpt lat="46.60383" lon="6.30216">
        <ele>1420.004639</ele>
        <time>2014-06-11T10:28:42Z</time>
      </trkpt>
      <trkpt lat="46.60381" lon="6.30215">
        <ele>1420.485352</ele>
        <time>2014-06-11T10:28:48Z</time>
      </trkpt>
      <trkpt lat="46.60374" lon="6.30208">
        <ele>1418.5625</ele>
        <time>2014-06-11T10:28:55Z</time>
      </trkpt>
      <trkpt lat="46.60366" lon="6.30201">
        <ele>1418.5625</ele>
        <time>2014-06-11T10:29:05Z</time>
      </trkpt>
      <trkpt lat="46.6035" lon="6.30196">
        <ele>1417.120605</ele>
        <time>2014-06-11T10:29:19Z</time>
      </trkpt>
      <trkpt lat="46.60335" lon="6.30195">
        <ele>1418.081787</ele>
        <time>2014-06-11T10:29:29Z</time>
      </trkpt>
      <trkpt lat="46.60325" lon="6.30192">
        <ele>1418.5625</ele>
        <time>2014-06-11T10:29:39Z</time>
      </trkpt>
      <trkpt lat="46.60312" lon="6.30186">
        <ele>1420.004639</ele>
        <time>2014-06-11T10:29:54Z</time>
      </trkpt>
      <trkpt lat="46.60297" lon="6.30175">
        <ele>1421.927246</ele>
        <time>2014-06-11T10:30:14Z</time>
      </trkpt>
      <trkpt lat="46.60294" lon="6.30174">
        <ele>1422.407959</ele>
        <time>2014-06-11T10:30:17Z</time>
      </trkpt>
      <trkpt lat="46.60281" lon="6.30152">
        <ele>1421.927246</ele>
        <time>2014-06-11T10:30:40Z</time>
      </trkpt>
      <trkpt lat="46.60274" lon="6.30104">
        <ele>1421.927246</ele>
        <time>2014-06-11T10:31:09Z</time>
      </trkpt>
      <trkpt lat="46.60274" lon="6.30101">
        <ele>1421.927246</ele>
        <time>2014-06-11T10:31:11Z</time>
      </trkpt>
      <trkpt lat="46.60257" lon="6.30079">
        <ele>1421.446533</ele>
        <time>2014-06-11T10:31:25Z</time>
      </trkpt>
      <trkpt lat="46.60254" lon="6.30076">
        <ele>1420.485352</ele>
        <time>2014-06-11T10:31:29Z</time>
      </trkpt>
      <trkpt lat="46.60249" lon="6.3007">
        <ele>1420.966064</ele>
        <time>2014-06-11T10:31:43Z</time>
      </trkpt>
      <trkpt lat="46.60239" lon="6.30077">
        <ele>1422.407959</ele>
        <time>2014-06-11T10:32:29Z</time>
      </trkpt>
      <trkpt lat="46.60237" lon="6.30157">
        <ele>1432.982178</ele>
        <time>2014-06-11T10:43:09Z</time>
      </trkpt>
      <trkpt lat="46.60219" lon="6.30271">
        <ele>1444.998779</ele>
        <time>2014-06-11T10:45:33Z</time>
      </trkpt>
      <trkpt lat="46.60209" lon="6.30281">
        <ele>1446.921387</ele>
        <time>2014-06-11T10:45:53Z</time>
      </trkpt>
      <trkpt lat="46.60118" lon="6.30298">
        <ele>1465.186523</ele>
        <time>2014-06-11T10:48:41Z</time>
      </trkpt>
      <trkpt lat="46.60101" lon="6.30301">
        <ele>1468.55127</ele>
        <time>2014-06-11T10:49:03Z</time>
      </trkpt>
      <trkpt lat="46.60059" lon="6.30307">
        <ele>1473.35791</ele>
        <time>2014-06-11T10:49:53Z</time>
      </trkpt>
      <trkpt lat="46.60032" lon="6.30314">
        <ele>1476.722412</ele>
        <time>2014-06-11T10:50:14Z</time>
      </trkpt>
      <trkpt lat="46.60012" lon="6.30356">
        <ele>1488.258301</ele>
        <time>2014-06-11T10:50:53Z</time>
      </trkpt>
      <trkpt lat="46.60002" lon="6.30377">
        <ele>1492.584229</ele>
        <time>2014-06-11T10:51:22Z</time>
      </trkpt>
      <trkpt lat="46.59997" lon="6.30381">
        <ele>1492.103516</ele>
        <time>2014-06-11T10:51:28Z</time>
      </trkpt>
      <trkpt lat="46.59984" lon="6.30387">
        <ele>1494.026123</ele>
        <time>2014-06-11T10:51:40Z</time>
      </trkpt>
      <trkpt lat="46.59973" lon="6.30398">
        <ele>1494.506592</ele>
        <time>2014-06-11T10:51:57Z</time>
      </trkpt>
      <trkpt lat="46.59972" lon="6.30405">
        <ele>1494.506592</ele>
        <time>2014-06-11T10:52:03Z</time>
      </trkpt>
      <trkpt lat="46.59973" lon="6.3042">
        <ele>1495.94873</ele>
        <time>2014-06-11T10:52:11Z</time>
      </trkpt>
      <trkpt lat="46.59967" lon="6.30433">
        <ele>1497.871338</ele>
        <time>2014-06-11T10:52:21Z</time>
      </trkpt>
      <trkpt lat="46.59955" lon="6.30447">
        <ele>1502.197266</ele>
        <time>2014-06-11T10:52:37Z</time>
      </trkpt>
      <trkpt lat="46.5993" lon="6.30446">
        <ele>1506.04248</ele>
        <time>2014-06-11T10:53:07Z</time>
      </trkpt>
      <trkpt lat="46.59915" lon="6.3044">
        <ele>1507.484619</ele>
        <time>2014-06-11T10:53:21Z</time>
      </trkpt>
      <trkpt lat="46.59902" lon="6.3044">
        <ele>1509.887695</ele>
        <time>2014-06-11T10:53:34Z</time>
      </trkpt>
      <trkpt lat="46.59888" lon="6.30421">
        <ele>1510.849121</ele>
        <time>2014-06-11T10:53:58Z</time>
      </trkpt>
      <trkpt lat="46.59881" lon="6.30405">
        <ele>1510.368408</ele>
        <time>2014-06-11T10:54:09Z</time>
      </trkpt>
      <trkpt lat="46.59872" lon="6.3039">
        <ele>1511.810547</ele>
        <time>2014-06-11T10:54:22Z</time>
      </trkpt>
      <trkpt lat="46.5986" lon="6.30377">
        <ele>1514.694336</ele>
        <time>2014-06-11T10:54:33Z</time>
      </trkpt>
      <trkpt lat="46.59857" lon="6.30375">
        <ele>1513.73291</ele>
        <time>2014-06-11T10:54:37Z</time>
      </trkpt>
      <trkpt lat="46.59848" lon="6.30356">
        <ele>1516.136475</ele>
        <time>2014-06-11T10:54:51Z</time>
      </trkpt>
      <trkpt lat="46.59837" lon="6.30344">
        <ele>1515.175049</ele>
        <time>2014-06-11T10:55:03Z</time>
      </trkpt>
      <trkpt lat="46.5983" lon="6.30344">
        <ele>1514.694336</ele>
        <time>2014-06-11T10:55:12Z</time>
      </trkpt>
      <trkpt lat="46.59829" lon="6.30345">
        <ele>1513.252441</ele>
        <time>2014-06-11T10:55:14Z</time>
      </trkpt>
      <trkpt lat="46.59825" lon="6.30345">
        <ele>1513.252441</ele>
        <time>2014-06-11T10:55:18Z</time>
      </trkpt>
      <trkpt lat="46.5981" lon="6.30352">
        <ele>1513.252441</ele>
        <time>2014-06-11T10:55:36Z</time>
      </trkpt>
      <trkpt lat="46.59798" lon="6.30353">
        <ele>1513.252441</ele>
        <time>2014-06-11T10:55:46Z</time>
      </trkpt>
      <trkpt lat="46.59795" lon="6.30351">
        <ele>1513.252441</ele>
        <time>2014-06-11T10:55:49Z</time>
      </trkpt>
      <trkpt lat="46.59775" lon="6.30345">
        <ele>1511.810547</ele>
        <time>2014-06-11T10:56:07Z</time>
      </trkpt>
      <trkpt lat="46.5976" lon="6.30337">
        <ele>1515.175049</ele>
        <time>2014-06-11T10:56:20Z</time>
      </trkpt>
      <trkpt lat="46.59758" lon="6.30336">
        <ele>1514.694336</ele>
        <time>2014-06-11T10:56:21Z</time>
      </trkpt>
      <trkpt lat="46.59754" lon="6.30331">
        <ele>1514.694336</ele>
        <time>2014-06-11T10:56:25Z</time>
      </trkpt>
      <trkpt lat="46.59745" lon="6.30332">
        <ele>1515.175049</ele>
        <time>2014-06-11T10:56:37Z</time>
      </trkpt>
      <trkpt lat="46.59739" lon="6.30334">
        <ele>1513.73291</ele>
        <time>2014-06-11T10:56:55Z</time>
      </trkpt>
      <trkpt lat="46.59733" lon="6.30336">
        <ele>1513.73291</ele>
        <time>2014-06-11T10:57:19Z</time>
      </trkpt>
      <trkpt lat="46.59723" lon="6.30346">
        <ele>1514.213623</ele>
        <time>2014-06-11T10:57:45Z</time>
      </trkpt>
      <trkpt lat="46.59706" lon="6.30342">
        <ele>1515.175049</ele>
        <time>2014-06-11T10:58:01Z</time>
      </trkpt>
      <trkpt lat="46.59693" lon="6.3033">
        <ele>1518.059082</ele>
        <time>2014-06-11T10:58:14Z</time>
      </trkpt>
      <trkpt lat="46.59684" lon="6.30327">
        <ele>1519.981689</ele>
        <time>2014-06-11T10:58:23Z</time>
      </trkpt>
      <trkpt lat="46.59675" lon="6.3032">
        <ele>1521.904297</ele>
        <time>2014-06-11T10:58:31Z</time>
      </trkpt>
      <trkpt lat="46.59667" lon="6.30312">
        <ele>1522.38501</ele>
        <time>2014-06-11T10:58:39Z</time>
      </trkpt>
      <trkpt lat="46.59661" lon="6.30308">
        <ele>1519.981689</ele>
        <time>2014-06-11T10:58:45Z</time>
      </trkpt>
      <trkpt lat="46.59649" lon="6.30294">
        <ele>1519.501221</ele>
        <time>2014-06-11T10:58:55Z</time>
      </trkpt>
      <trkpt lat="46.59645" lon="6.30289">
        <ele>1521.423584</ele>
        <time>2014-06-11T10:59:01Z</time>
      </trkpt>
      <trkpt lat="46.59642" lon="6.30282">
        <ele>1520.462402</ele>
        <time>2014-06-11T10:59:08Z</time>
      </trkpt>
      <trkpt lat="46.59634" lon="6.30277">
        <ele>1520.943115</ele>
        <time>2014-06-11T10:59:14Z</time>
      </trkpt>
      <trkpt lat="46.59634" lon="6.30276">
        <ele>1521.904297</ele>
        <time>2014-06-11T10:59:16Z</time>
      </trkpt>
      <trkpt lat="46.5962" lon="6.30263">
        <ele>1522.38501</ele>
        <time>2014-06-11T10:59:27Z</time>
      </trkpt>
      <trkpt lat="46.59618" lon="6.3026">
        <ele>1522.865723</ele>
        <time>2014-06-11T10:59:29Z</time>
      </trkpt>
      <trkpt lat="46.59609" lon="6.3025">
        <ele>1524.307617</ele>
        <time>2014-06-11T10:59:38Z</time>
      </trkpt>
      <trkpt lat="46.59603" lon="6.30244">
        <ele>1526.710938</ele>
        <time>2014-06-11T10:59:45Z</time>
      </trkpt>
      <trkpt lat="46.59592" lon="6.30231">
        <ele>1533.440186</ele>
        <time>2014-06-11T11:00:00Z</time>
      </trkpt>
      <trkpt lat="46.5959" lon="6.3023">
        <ele>1535.362793</ele>
        <time>2014-06-11T11:00:04Z</time>
      </trkpt>
      <trkpt lat="46.59584" lon="6.30226">
        <ele>1537.766113</ele>
        <time>2014-06-11T11:00:16Z</time>
      </trkpt>
      <trkpt lat="46.59574" lon="6.30214">
        <ele>1540.649902</ele>
        <time>2014-06-11T11:00:30Z</time>
      </trkpt>
      <trkpt lat="46.59557" lon="6.30199">
        <ele>1544.014648</ele>
        <time>2014-06-11T11:00:48Z</time>
      </trkpt>
      <trkpt lat="46.59548" lon="6.30192">
        <ele>1544.97583</ele>
        <time>2014-06-11T11:01:00Z</time>
      </trkpt>
      <trkpt lat="46.59542" lon="6.30184">
        <ele>1546.898438</ele>
        <time>2014-06-11T11:01:15Z</time>
      </trkpt>
      <trkpt lat="46.5952" lon="6.30177">
        <ele>1546.898438</ele>
        <time>2014-06-11T11:01:36Z</time>
      </trkpt>
      <trkpt lat="46.5951" lon="6.30162">
        <ele>1546.898438</ele>
        <time>2014-06-11T11:02:03Z</time>
      </trkpt>
      <trkpt lat="46.59459" lon="6.30127">
        <ele>1547.37915</ele>
        <time>2014-06-11T11:03:44Z</time>
      </trkpt>
      <trkpt lat="46.59447" lon="6.30117">
        <ele>1549.302002</ele>
        <time>2014-06-11T11:04:02Z</time>
      </trkpt>
      <trkpt lat="46.59437" lon="6.3011">
        <ele>1551.705322</ele>
        <time>2014-06-11T11:04:17Z</time>
      </trkpt>
      <trkpt lat="46.59412" lon="6.3009">
        <ele>1557.473145</ele>
        <time>2014-06-11T11:04:53Z</time>
      </trkpt>
      <trkpt lat="46.59399" lon="6.30083">
        <ele>1560.837646</ele>
        <time>2014-06-11T11:05:06Z</time>
      </trkpt>
      <trkpt lat="46.59383" lon="6.30079">
        <ele>1563.240967</ele>
        <time>2014-06-11T11:05:22Z</time>
      </trkpt>
      <trkpt lat="46.59373" lon="6.30065">
        <ele>1566.125</ele>
        <time>2014-06-11T11:05:42Z</time>
      </trkpt>
      <trkpt lat="46.59364" lon="6.30052">
        <ele>1569.489746</ele>
        <time>2014-06-11T11:06:04Z</time>
      </trkpt>
      <trkpt lat="46.59366" lon="6.30051">
        <ele>1569.489746</ele>
        <time>2014-06-11T11:06:16Z</time>
      </trkpt>
      <trkpt lat="46.59362" lon="6.30049">
        <ele>1569.970215</ele>
        <time>2014-06-11T11:06:22Z</time>
      </trkpt>
      <trkpt lat="46.59352" lon="6.30035">
        <ele>1570.931641</ele>
        <time>2014-06-11T11:06:39Z</time>
      </trkpt>
      <trkpt lat="46.59344" lon="6.30031">
        <ele>1570.931641</ele>
        <time>2014-06-11T11:06:56Z</time>
      </trkpt>
      <trkpt lat="46.59336" lon="6.30021">
        <ele>1573.81543</ele>
        <time>2014-06-11T11:08:39Z</time>
      </trkpt>
      <trkpt lat="46.59321" lon="6.30013">
        <ele>1576.21875</ele>
        <time>2014-06-11T11:08:58Z</time>
      </trkpt>
      <trkpt lat="46.59308" lon="6.30002">
        <ele>1579.102539</ele>
        <time>2014-06-11T11:09:13Z</time>
      </trkpt>
      <trkpt lat="46.59295" lon="6.3">
        <ele>1579.583252</ele>
        <time>2014-06-11T11:09:27Z</time>
      </trkpt>
      <trkpt lat="46.59283" lon="6.30001">
        <ele>1582.947998</ele>
        <time>2014-06-11T11:09:45Z</time>
      </trkpt>
      <trkpt lat="46.59273" lon="6.29998">
        <ele>1584.87085</ele>
        <time>2014-06-11T11:10:03Z</time>
      </trkpt>
      <trkpt lat="46.59264" lon="6.29994">
        <ele>1586.793213</ele>
        <time>2014-06-11T11:10:15Z</time>
      </trkpt>
      <trkpt lat="46.5926" lon="6.29991">
        <ele>1586.312744</ele>
        <time>2014-06-11T11:10:20Z</time>
      </trkpt>
      <trkpt lat="46.59254" lon="6.29985">
        <ele>1586.312744</ele>
        <time>2014-06-11T11:10:26Z</time>
      </trkpt>
      <trkpt lat="46.59239" lon="6.29978">
        <ele>1583.428711</ele>
        <time>2014-06-11T11:10:40Z</time>
      </trkpt>
      <trkpt lat="46.59225" lon="6.29973">
        <ele>1581.506104</ele>
        <time>2014-06-11T11:10:53Z</time>
      </trkpt>
      <trkpt lat="46.59215" lon="6.29971">
        <ele>1580.064209</ele>
        <time>2014-06-11T11:11:05Z</time>
      </trkpt>
      <trkpt lat="46.59208" lon="6.29975">
        <ele>1582.467529</ele>
        <time>2014-06-11T11:11:19Z</time>
      </trkpt>
      <trkpt lat="46.59203" lon="6.29978">
        <ele>1584.390137</ele>
        <time>2014-06-11T11:11:25Z</time>
      </trkpt>
      <trkpt lat="46.5919" lon="6.29987">
        <ele>1585.832031</ele>
        <time>2014-06-11T11:11:39Z</time>
      </trkpt>
      <trkpt lat="46.59179" lon="6.29999">
        <ele>1587.754639</ele>
        <time>2014-06-11T11:12:02Z</time>
      </trkpt>
      <trkpt lat="46.59181" lon="6.30001">
        <ele>1587.273926</ele>
        <time>2014-06-11T11:12:18Z</time>
      </trkpt>
      <trkpt lat="46.59184" lon="6.30003">
        <ele>1587.273926</ele>
        <time>2014-06-11T11:12:21Z</time>
      </trkpt>
      <trkpt lat="46.59187" lon="6.30006">
        <ele>1587.273926</ele>
        <time>2014-06-11T11:12:25Z</time>
      </trkpt>
      <trkpt lat="46.59196" lon="6.30012">
        <ele>1587.273926</ele>
        <time>2014-06-11T11:12:37Z</time>
      </trkpt>
      <trkpt lat="46.59206" lon="6.3002">
        <ele>1587.754639</ele>
        <time>2014-06-11T11:12:50Z</time>
      </trkpt>
      <trkpt lat="46.5921" lon="6.30023">
        <ele>1587.754639</ele>
        <time>2014-06-11T11:12:59Z</time>
      </trkpt>
      <trkpt lat="46.59217" lon="6.30033">
        <ele>1585.351318</ele>
        <time>2014-06-11T11:13:12Z</time>
      </trkpt>
      <trkpt lat="46.59225" lon="6.30043">
        <ele>1586.312744</ele>
        <time>2014-06-11T11:13:22Z</time>
      </trkpt>
      <trkpt lat="46.59232" lon="6.30049">
        <ele>1589.196533</ele>
        <time>2014-06-11T11:13:30Z</time>
      </trkpt>
      <trkpt lat="46.59236" lon="6.30056">
        <ele>1593.041748</ele>
        <time>2014-06-11T11:13:39Z</time>
      </trkpt>
      <trkpt lat="46.59237" lon="6.30061">
        <ele>1593.522461</ele>
        <time>2014-06-11T11:13:44Z</time>
      </trkpt>
      <trkpt lat="46.59241" lon="6.30071">
        <ele>1596.406738</ele>
        <time>2014-06-11T11:13:51Z</time>
      </trkpt>
      <trkpt lat="46.59246" lon="6.30079">
        <ele>1602.655029</ele>
        <time>2014-06-11T11:14:06Z</time>
      </trkpt>
      <trkpt lat="46.59256" lon="6.30094">
        <ele>1603.616455</ele>
        <time>2014-06-11T11:14:21Z</time>
      </trkpt>
      <trkpt lat="46.59261" lon="6.30102">
        <ele>1606.019531</ele>
        <time>2014-06-11T11:14:30Z</time>
      </trkpt>
      <trkpt lat="46.59267" lon="6.30108">
        <ele>1607.46167</ele>
        <time>2014-06-11T11:14:38Z</time>
      </trkpt>
      <trkpt lat="46.59274" lon="6.30116">
        <ele>1608.903564</ele>
        <time>2014-06-11T11:14:47Z</time>
      </trkpt>
      <trkpt lat="46.59278" lon="6.30122">
        <ele>1610.826172</ele>
        <time>2014-06-11T11:15:06Z</time>
      </trkpt>
      <trkpt lat="46.59277" lon="6.30126">
        <ele>1607.46167</ele>
        <time>2014-06-11T11:15:49Z</time>
      </trkpt>
      <trkpt lat="46.59278" lon="6.30131">
        <ele>1606.019531</ele>
        <time>2014-06-11T11:15:52Z</time>
      </trkpt>
      <trkpt lat="46.59283" lon="6.30149">
        <ele>1600.251953</ele>
        <time>2014-06-11T11:16:05Z</time>
      </trkpt>
      <trkpt lat="46.59284" lon="6.30165">
        <ele>1596.887207</ele>
        <time>2014-06-11T11:16:16Z</time>
      </trkpt>
      <trkpt lat="46.59287" lon="6.3017">
        <ele>1595.925781</ele>
        <time>2014-06-11T11:16:20Z</time>
      </trkpt>
      <trkpt lat="46.59289" lon="6.30191">
        <ele>1591.599854</ele>
        <time>2014-06-11T11:16:33Z</time>
      </trkpt>
      <trkpt lat="46.59289" lon="6.30197">
        <ele>1589.677246</ele>
        <time>2014-06-11T11:16:37Z</time>
      </trkpt>
      <trkpt lat="46.59291" lon="6.30202">
        <ele>1587.754639</ele>
        <time>2014-06-11T11:16:42Z</time>
      </trkpt>
      <trkpt lat="46.59288" lon="6.30228">
        <ele>1581.506104</ele>
        <time>2014-06-11T11:17:01Z</time>
      </trkpt>
      <trkpt lat="46.59294" lon="6.30274">
        <ele>1581.986816</ele>
        <time>2014-06-11T11:18:03Z</time>
      </trkpt>
      <trkpt lat="46.59295" lon="6.30293">
        <ele>1581.506104</ele>
        <time>2014-06-11T11:18:21Z</time>
      </trkpt>
      <trkpt lat="46.59292" lon="6.30306">
        <ele>1582.467529</ele>
        <time>2014-06-11T11:18:50Z</time>
      </trkpt>
      <trkpt lat="46.59299" lon="6.30316">
        <ele>1584.390137</ele>
        <time>2014-06-11T11:19:12Z</time>
      </trkpt>
      <trkpt lat="46.59303" lon="6.30344">
        <ele>1586.793213</ele>
        <time>2014-06-11T11:19:40Z</time>
      </trkpt>
      <trkpt lat="46.59306" lon="6.30358">
        <ele>1587.754639</ele>
        <time>2014-06-11T11:19:54Z</time>
      </trkpt>
      <trkpt lat="46.5931" lon="6.30376">
        <ele>1588.235352</ele>
        <time>2014-06-11T11:20:17Z</time>
      </trkpt>
      <trkpt lat="46.59311" lon="6.30391">
        <ele>1588.716064</ele>
        <time>2014-06-11T11:20:44Z</time>
      </trkpt>
      <trkpt lat="46.59313" lon="6.30411">
        <ele>1593.041748</ele>
        <time>2014-06-11T11:21:07Z</time>
      </trkpt>
      <trkpt lat="46.59315" lon="6.30428">
        <ele>1594.003174</ele>
        <time>2014-06-11T11:21:30Z</time>
      </trkpt>
      <trkpt lat="46.59317" lon="6.30444">
        <ele>1596.406738</ele>
        <time>2014-06-11T11:21:42Z</time>
      </trkpt>
      <trkpt lat="46.59319" lon="6.30456">
        <ele>1596.406738</ele>
        <time>2014-06-11T11:21:52Z</time>
      </trkpt>
      <trkpt lat="46.59322" lon="6.30474">
        <ele>1596.887207</ele>
        <time>2014-06-11T11:22:08Z</time>
      </trkpt>
      <trkpt lat="46.59325" lon="6.30486">
        <ele>1597.36792</ele>
        <time>2014-06-11T11:22:16Z</time>
      </trkpt>
      <trkpt lat="46.59325" lon="6.30507">
        <ele>1597.848633</ele>
        <time>2014-06-11T11:22:32Z</time>
      </trkpt>
      <trkpt lat="46.59323" lon="6.30537">
        <ele>1598.329102</ele>
        <time>2014-06-11T11:22:56Z</time>
      </trkpt>
      <trkpt lat="46.59328" lon="6.30539">
        <ele>1601.213135</ele>
        <time>2014-06-11T11:23:09Z</time>
      </trkpt>
      <trkpt lat="46.5933" lon="6.30553">
        <ele>1603.135742</ele>
        <time>2014-06-11T11:23:23Z</time>
      </trkpt>
      <trkpt lat="46.59331" lon="6.30564">
        <ele>1605.05835</ele>
        <time>2014-06-11T11:23:37Z</time>
      </trkpt>
      <trkpt lat="46.59335" lon="6.30577">
        <ele>1607.942383</ele>
        <time>2014-06-11T11:23:53Z</time>
      </trkpt>
      <trkpt lat="46.59335" lon="6.3059">
        <ele>1609.384277</ele>
        <time>2014-06-11T11:24:04Z</time>
      </trkpt>
      <trkpt lat="46.59334" lon="6.30607">
        <ele>1611.787598</ele>
        <time>2014-06-11T11:24:15Z</time>
      </trkpt>
      <trkpt lat="46.59338" lon="6.30616">
        <ele>1614.671631</ele>
        <time>2014-06-11T11:24:36Z</time>
      </trkpt>
      <trkpt lat="46.59338" lon="6.30626">
        <ele>1617.074951</ele>
        <time>2014-06-11T11:24:46Z</time>
      </trkpt>
      <trkpt lat="46.59343" lon="6.30635">
        <ele>1618.997559</ele>
        <time>2014-06-11T11:24:56Z</time>
      </trkpt>
      <trkpt lat="46.59356" lon="6.30647">
        <ele>1625.726563</ele>
        <time>2014-06-11T11:25:12Z</time>
      </trkpt>
      <trkpt lat="46.59363" lon="6.30656">
        <ele>1632.936523</ele>
        <time>2014-06-11T11:25:43Z</time>
      </trkpt>
      <trkpt lat="46.59362" lon="6.30656">
        <ele>1636.30127</ele>
        <time>2014-06-11T11:26:14Z</time>
      </trkpt>
      <trkpt lat="46.5936" lon="6.30671">
        <ele>1641.107666</ele>
        <time>2014-06-11T11:27:01Z</time>
      </trkpt>
      <trkpt lat="46.59368" lon="6.30686">
        <ele>1641.588379</ele>
        <time>2014-06-11T11:27:16Z</time>
      </trkpt>
      <trkpt lat="46.59377" lon="6.30695">
        <ele>1639.665771</ele>
        <time>2014-06-11T11:27:29Z</time>
      </trkpt>
      <trkpt lat="46.59383" lon="6.30711">
        <ele>1637.743164</ele>
        <time>2014-06-11T11:27:47Z</time>
      </trkpt>
      <trkpt lat="46.59389" lon="6.30731">
        <ele>1636.781738</ele>
        <time>2014-06-11T11:28:06Z</time>
      </trkpt>
      <trkpt lat="46.59393" lon="6.30746">
        <ele>1635.820557</ele>
        <time>2014-06-11T11:28:22Z</time>
      </trkpt>
      <trkpt lat="46.59393" lon="6.30768">
        <ele>1634.378662</ele>
        <time>2014-06-11T11:28:40Z</time>
      </trkpt>
      <trkpt lat="46.59393" lon="6.30769">
        <ele>1634.378662</ele>
        <time>2014-06-11T11:28:41Z</time>
      </trkpt>
      <trkpt lat="46.59395" lon="6.30784">
        <ele>1633.897949</ele>
        <time>2014-06-11T11:28:55Z</time>
      </trkpt>
      <trkpt lat="46.59392" lon="6.30781">
        <ele>1634.378662</ele>
        <time>2014-06-11T11:29:15Z</time>
      </trkpt>
      <trkpt lat="46.59395" lon="6.30797">
        <ele>1634.378662</ele>
        <time>2014-06-11T11:29:41Z</time>
      </trkpt>
      <trkpt lat="46.59395" lon="6.3083">
        <ele>1643.510986</ele>
        <time>2014-06-11T11:30:24Z</time>
      </trkpt>
      <trkpt lat="46.59402" lon="6.30849">
        <ele>1645.914551</ele>
        <time>2014-06-11T11:30:38Z</time>
      </trkpt>
      <trkpt lat="46.59403" lon="6.3085">
        <ele>1645.914551</ele>
        <time>2014-06-11T11:30:39Z</time>
      </trkpt>
      <trkpt lat="46.59414" lon="6.30867">
        <ele>1648.317627</ele>
        <time>2014-06-11T11:30:57Z</time>
      </trkpt>
      <trkpt lat="46.59417" lon="6.30879">
        <ele>1649.279053</ele>
        <time>2014-06-11T11:31:06Z</time>
      </trkpt>
      <trkpt lat="46.5942" lon="6.30891">
        <ele>1654.085693</ele>
        <time>2014-06-11T11:31:20Z</time>
      </trkpt>
      <trkpt lat="46.59429" lon="6.30892">
        <ele>1656.008057</ele>
        <time>2014-06-11T11:31:40Z</time>
      </trkpt>
      <trkpt lat="46.59434" lon="6.30903">
        <ele>1656.008057</ele>
        <time>2014-06-11T11:32:03Z</time>
      </trkpt>
      <trkpt lat="46.59436" lon="6.30912">
        <ele>1657.930908</ele>
        <time>2014-06-11T11:32:26Z</time>
      </trkpt>
      <trkpt lat="46.59442" lon="6.30925">
        <ele>1658.89209</ele>
        <time>2014-06-11T11:32:55Z</time>
      </trkpt>
      <trkpt lat="46.5945" lon="6.3094">
        <ele>1657.450195</ele>
        <time>2014-06-11T11:33:17Z</time>
      </trkpt>
      <trkpt lat="46.59454" lon="6.30946">
        <ele>1658.411377</ele>
        <time>2014-06-11T11:33:29Z</time>
      </trkpt>
      <trkpt lat="46.59461" lon="6.30961">
        <ele>1660.814941</ele>
        <time>2014-06-11T11:33:46Z</time>
      </trkpt>
      <trkpt lat="46.59464" lon="6.30965">
        <ele>1661.776367</ele>
        <time>2014-06-11T11:33:49Z</time>
      </trkpt>
      <trkpt lat="46.59467" lon="6.30973">
        <ele>1665.140869</ele>
        <time>2014-06-11T11:34:04Z</time>
      </trkpt>
      <trkpt lat="46.59475" lon="6.30987">
        <ele>1668.505371</ele>
        <time>2014-06-11T11:34:20Z</time>
      </trkpt>
      <trkpt lat="46.59479" lon="6.30998">
        <ele>1673.312012</ele>
        <time>2014-06-11T11:34:32Z</time>
      </trkpt>
      <trkpt lat="46.59479" lon="6.31004">
        <ele>1678.599365</ele>
        <time>2014-06-11T11:34:46Z</time>
      </trkpt>
      <trkpt lat="46.59481" lon="6.31004">
        <ele>1679.560547</ele>
        <time>2014-06-11T11:35:32Z</time>
      </trkpt>
      <trkpt lat="46.59482" lon="6.31012">
        <ele>1678.599365</ele>
        <time>2014-06-11T11:38:20Z</time>
      </trkpt>
      <trkpt lat="46.595" lon="6.31033">
        <ele>1675.234375</ele>
        <time>2014-06-11T11:47:18Z</time>
      </trkpt>
      <trkpt lat="46.59497" lon="6.31048">
        <ele>1679.560547</ele>
        <time>2014-06-11T11:47:33Z</time>
      </trkpt>
      <trkpt lat="46.59502" lon="6.31057">
        <ele>1680.521973</ele>
        <time>2014-06-11T11:47:44Z</time>
      </trkpt>
      <trkpt lat="46.59502" lon="6.31064">
        <ele>1681.483154</ele>
        <time>2014-06-11T11:47:51Z</time>
      </trkpt>
      <trkpt lat="46.59509" lon="6.31073">
        <ele>1678.599365</ele>
        <time>2014-06-11T11:48:09Z</time>
      </trkpt>
      <trkpt lat="46.59519" lon="6.31072">
        <ele>1672.831299</ele>
        <time>2014-06-11T11:48:24Z</time>
      </trkpt>
      <trkpt lat="46.59524" lon="6.31067">
        <ele>1661.295654</ele>
        <time>2014-06-11T11:48:52Z</time>
      </trkpt>
      <trkpt lat="46.59525" lon="6.31065">
        <ele>1661.776367</ele>
        <time>2014-06-11T11:49:08Z</time>
      </trkpt>
      <trkpt lat="46.59527" lon="6.31085">
        <ele>1655.527588</ele>
        <time>2014-06-11T11:49:28Z</time>
      </trkpt>
      <trkpt lat="46.59528" lon="6.31091">
        <ele>1654.085693</ele>
        <time>2014-06-11T11:49:32Z</time>
      </trkpt>
      <trkpt lat="46.5954" lon="6.31116">
        <ele>1653.60498</ele>
        <time>2014-06-11T11:49:50Z</time>
      </trkpt>
      <trkpt lat="46.59555" lon="6.31132">
        <ele>1652.162842</ele>
        <time>2014-06-11T11:50:04Z</time>
      </trkpt>
      <trkpt lat="46.59566" lon="6.31148">
        <ele>1652.643555</ele>
        <time>2014-06-11T11:50:19Z</time>
      </trkpt>
      <trkpt lat="46.59571" lon="6.31154">
        <ele>1653.60498</ele>
        <time>2014-06-11T11:50:34Z</time>
      </trkpt>
      <trkpt lat="46.5958" lon="6.31162">
        <ele>1653.124268</ele>
        <time>2014-06-11T11:51:04Z</time>
      </trkpt>
      <trkpt lat="46.5959" lon="6.31176">
        <ele>1650.240479</ele>
        <time>2014-06-11T11:51:16Z</time>
      </trkpt>
      <trkpt lat="46.59605" lon="6.31195">
        <ele>1645.433838</ele>
        <time>2014-06-11T11:51:31Z</time>
      </trkpt>
      <trkpt lat="46.59611" lon="6.31207">
        <ele>1643.510986</ele>
        <time>2014-06-11T11:51:42Z</time>
      </trkpt>
      <trkpt lat="46.59612" lon="6.31208">
        <ele>1643.030273</ele>
        <time>2014-06-11T11:51:43Z</time>
      </trkpt>
      <trkpt lat="46.59621" lon="6.31217">
        <ele>1642.549805</ele>
        <time>2014-06-11T11:51:58Z</time>
      </trkpt>
      <trkpt lat="46.59622" lon="6.31234">
        <ele>1641.107666</ele>
        <time>2014-06-11T11:52:19Z</time>
      </trkpt>
      <trkpt lat="46.59635" lon="6.31241">
        <ele>1641.107666</ele>
        <time>2014-06-11T11:52:58Z</time>
      </trkpt>
      <trkpt lat="46.59651" lon="6.31253">
        <ele>1640.146484</ele>
        <time>2014-06-11T11:53:15Z</time>
      </trkpt>
      <trkpt lat="46.59653" lon="6.31257">
        <ele>1640.146484</ele>
        <time>2014-06-11T11:53:18Z</time>
      </trkpt>
      <trkpt lat="46.59668" lon="6.31275">
        <ele>1637.743164</ele>
        <time>2014-06-11T11:53:33Z</time>
      </trkpt>
      <trkpt lat="46.5967" lon="6.31283">
        <ele>1638.223877</ele>
        <time>2014-06-11T11:53:44Z</time>
      </trkpt>
      <trkpt lat="46.59673" lon="6.31287">
        <ele>1638.70459</ele>
        <time>2014-06-11T11:54:03Z</time>
      </trkpt>
      <trkpt lat="46.59679" lon="6.31295">
        <ele>1637.743164</ele>
        <time>2014-06-11T11:54:10Z</time>
      </trkpt>
      <trkpt lat="46.59697" lon="6.31302">
        <ele>1640.626953</ele>
        <time>2014-06-11T11:54:24Z</time>
      </trkpt>
      <trkpt lat="46.59711" lon="6.31309">
        <ele>1640.146484</ele>
        <time>2014-06-11T11:54:36Z</time>
      </trkpt>
      <trkpt lat="46.59716" lon="6.31309">
        <ele>1643.991699</ele>
        <time>2014-06-11T11:54:55Z</time>
      </trkpt>
      <trkpt lat="46.59733" lon="6.31318">
        <ele>1646.395264</ele>
        <time>2014-06-11T11:55:50Z</time>
      </trkpt>
      <trkpt lat="46.59739" lon="6.31322">
        <ele>1644.953125</ele>
        <time>2014-06-11T11:55:55Z</time>
      </trkpt>
      <trkpt lat="46.59741" lon="6.31325">
        <ele>1643.510986</ele>
        <time>2014-06-11T11:55:58Z</time>
      </trkpt>
      <trkpt lat="46.59743" lon="6.31329">
        <ele>1643.510986</ele>
        <time>2014-06-11T11:56:01Z</time>
      </trkpt>
      <trkpt lat="46.59755" lon="6.31344">
        <ele>1642.069092</ele>
        <time>2014-06-11T11:56:15Z</time>
      </trkpt>
      <trkpt lat="46.59764" lon="6.31358">
        <ele>1640.626953</ele>
        <time>2014-06-11T11:56:31Z</time>
      </trkpt>
      <trkpt lat="46.59776" lon="6.31375">
        <ele>1637.743164</ele>
        <time>2014-06-11T11:56:44Z</time>
      </trkpt>
      <trkpt lat="46.59788" lon="6.31391">
        <ele>1636.30127</ele>
        <time>2014-06-11T11:56:58Z</time>
      </trkpt>
      <trkpt lat="46.59795" lon="6.31408">
        <ele>1633.897949</ele>
        <time>2014-06-11T11:57:10Z</time>
      </trkpt>
      <trkpt lat="46.59798" lon="6.31425">
        <ele>1630.533447</ele>
        <time>2014-06-11T11:57:26Z</time>
      </trkpt>
      <trkpt lat="46.59799" lon="6.31432">
        <ele>1627.64917</ele>
        <time>2014-06-11T11:58:07Z</time>
      </trkpt>
      <trkpt lat="46.59801" lon="6.31443">
        <ele>1627.168701</ele>
        <time>2014-06-11T11:58:14Z</time>
      </trkpt>
      <trkpt lat="46.59801" lon="6.31472">
        <ele>1625.24585</ele>
        <time>2014-06-11T11:58:29Z</time>
      </trkpt>
      <trkpt lat="46.59801" lon="6.31476">
        <ele>1624.765381</ele>
        <time>2014-06-11T11:58:31Z</time>
      </trkpt>
      <trkpt lat="46.59802" lon="6.3148">
        <ele>1624.765381</ele>
        <time>2014-06-11T11:58:35Z</time>
      </trkpt>
      <trkpt lat="46.59806" lon="6.31486">
        <ele>1624.284668</ele>
        <time>2014-06-11T11:58:40Z</time>
      </trkpt>
      <trkpt lat="46.5981" lon="6.3149">
        <ele>1623.803955</ele>
        <time>2014-06-11T11:58:44Z</time>
      </trkpt>
      <trkpt lat="46.59818" lon="6.315">
        <ele>1622.362061</ele>
        <time>2014-06-11T11:58:53Z</time>
      </trkpt>
      <trkpt lat="46.5982" lon="6.31503">
        <ele>1622.362061</ele>
        <time>2014-06-11T11:58:55Z</time>
      </trkpt>
      <trkpt lat="46.59835" lon="6.31526">
        <ele>1619.95874</ele>
        <time>2014-06-11T11:59:11Z</time>
      </trkpt>
      <trkpt lat="46.59844" lon="6.31542">
        <ele>1618.997559</ele>
        <time>2014-06-11T11:59:22Z</time>
      </trkpt>
      <trkpt lat="46.59845" lon="6.31551">
        <ele>1618.516846</ele>
        <time>2014-06-11T11:59:28Z</time>
      </trkpt>
      <trkpt lat="46.59843" lon="6.31562">
        <ele>1617.074951</ele>
        <time>2014-06-11T11:59:36Z</time>
      </trkpt>
      <trkpt lat="46.59844" lon="6.31585">
        <ele>1614.190918</ele>
        <time>2014-06-11T11:59:49Z</time>
      </trkpt>
      <trkpt lat="46.59853" lon="6.31612">
        <ele>1612.749023</ele>
        <time>2014-06-11T12:00:04Z</time>
      </trkpt>
      <trkpt lat="46.59863" lon="6.31633">
        <ele>1613.710205</ele>
        <time>2014-06-11T12:00:17Z</time>
      </trkpt>
      <trkpt lat="46.59869" lon="6.31646">
        <ele>1614.671631</ele>
        <time>2014-06-11T12:00:26Z</time>
      </trkpt>
      <trkpt lat="46.59869" lon="6.31661">
        <ele>1614.190918</ele>
        <time>2014-06-11T12:00:34Z</time>
      </trkpt>
      <trkpt lat="46.59871" lon="6.31683">
        <ele>1613.229736</ele>
        <time>2014-06-11T12:00:48Z</time>
      </trkpt>
      <trkpt lat="46.59878" lon="6.31695">
        <ele>1611.787598</ele>
        <time>2014-06-11T12:01:02Z</time>
      </trkpt>
      <trkpt lat="46.59884" lon="6.31708">
        <ele>1609.864746</ele>
        <time>2014-06-11T12:01:35Z</time>
      </trkpt>
      <trkpt lat="46.59884" lon="6.31715">
        <ele>1609.384277</ele>
        <time>2014-06-11T12:01:41Z</time>
      </trkpt>
      <trkpt lat="46.59889" lon="6.31731">
        <ele>1605.539063</ele>
        <time>2014-06-11T12:01:54Z</time>
      </trkpt>
      <trkpt lat="46.59889" lon="6.31733">
        <ele>1605.05835</ele>
        <time>2014-06-11T12:01:56Z</time>
      </trkpt>
      <trkpt lat="46.5989" lon="6.31734">
        <ele>1604.097168</ele>
        <time>2014-06-11T12:01:58Z</time>
      </trkpt>
      <trkpt lat="46.59891" lon="6.31742">
        <ele>1602.655029</ele>
        <time>2014-06-11T12:02:03Z</time>
      </trkpt>
      <trkpt lat="46.59892" lon="6.31761">
        <ele>1598.329102</ele>
        <time>2014-06-11T12:02:17Z</time>
      </trkpt>
      <trkpt lat="46.59893" lon="6.31764">
        <ele>1597.848633</ele>
        <time>2014-06-11T12:02:19Z</time>
      </trkpt>
      <trkpt lat="46.59893" lon="6.3178">
        <ele>1597.36792</ele>
        <time>2014-06-11T12:02:30Z</time>
      </trkpt>
      <trkpt lat="46.59899" lon="6.31799">
        <ele>1598.809814</ele>
        <time>2014-06-11T12:02:44Z</time>
      </trkpt>
      <trkpt lat="46.59906" lon="6.31814">
        <ele>1597.848633</ele>
        <time>2014-06-11T12:02:57Z</time>
      </trkpt>
      <trkpt lat="46.59907" lon="6.31829">
        <ele>1597.36792</ele>
        <time>2014-06-11T12:03:11Z</time>
      </trkpt>
      <trkpt lat="46.59919" lon="6.31812">
        <ele>1598.329102</ele>
        <time>2014-06-11T12:06:45Z</time>
      </trkpt>
      <trkpt lat="46.5993" lon="6.31824">
        <ele>1607.942383</ele>
        <time>2014-06-11T12:21:28Z</time>
      </trkpt>
      <trkpt lat="46.59933" lon="6.31804">
        <ele>1608.422852</ele>
        <time>2014-06-11T12:21:45Z</time>
      </trkpt>
      <trkpt lat="46.59911" lon="6.31828">
        <ele>1608.422852</ele>
        <time>2014-06-11T12:23:12Z</time>
      </trkpt>
      <trkpt lat="46.599" lon="6.31817">
        <ele>1609.384277</ele>
        <time>2014-06-11T12:23:30Z</time>
      </trkpt>
      <trkpt lat="46.59894" lon="6.31802">
        <ele>1608.422852</ele>
        <time>2014-06-11T12:23:46Z</time>
      </trkpt>
      <trkpt lat="46.59893" lon="6.31791">
        <ele>1608.422852</ele>
        <time>2014-06-11T12:23:56Z</time>
      </trkpt>
      <trkpt lat="46.59889" lon="6.31767">
        <ele>1607.46167</ele>
        <time>2014-06-11T12:24:16Z</time>
      </trkpt>
      <trkpt lat="46.5989" lon="6.31746">
        <ele>1613.710205</ele>
        <time>2014-06-11T12:24:32Z</time>
      </trkpt>
      <trkpt lat="46.59889" lon="6.31742">
        <ele>1613.229736</ele>
        <time>2014-06-11T12:24:36Z</time>
      </trkpt>
      <trkpt lat="46.59887" lon="6.31726">
        <ele>1613.229736</ele>
        <time>2014-06-11T12:24:49Z</time>
      </trkpt>
      <trkpt lat="46.59878" lon="6.31707">
        <ele>1615.152344</ele>
        <time>2014-06-11T12:26:12Z</time>
      </trkpt>
      <trkpt lat="46.59873" lon="6.31695">
        <ele>1615.633057</ele>
        <time>2014-06-11T12:26:23Z</time>
      </trkpt>
      <trkpt lat="46.59867" lon="6.31677">
        <ele>1617.074951</ele>
        <time>2014-06-11T12:26:38Z</time>
      </trkpt>
      <trkpt lat="46.59866" lon="6.31667">
        <ele>1618.516846</ele>
        <time>2014-06-11T12:26:50Z</time>
      </trkpt>
      <trkpt lat="46.59867" lon="6.31655">
        <ele>1617.074951</ele>
        <time>2014-06-11T12:27:04Z</time>
      </trkpt>
      <trkpt lat="46.59868" lon="6.31651">
        <ele>1617.074951</ele>
        <time>2014-06-11T12:27:06Z</time>
      </trkpt>
      <trkpt lat="46.5986" lon="6.31636">
        <ele>1618.036133</ele>
        <time>2014-06-11T12:27:18Z</time>
      </trkpt>
      <trkpt lat="46.59853" lon="6.31622">
        <ele>1619.478271</ele>
        <time>2014-06-11T12:27:29Z</time>
      </trkpt>
      <trkpt lat="46.59846" lon="6.31608">
        <ele>1622.362061</ele>
        <time>2014-06-11T12:27:41Z</time>
      </trkpt>
      <trkpt lat="46.59843" lon="6.31587">
        <ele>1623.803955</ele>
        <time>2014-06-11T12:27:57Z</time>
      </trkpt>
      <trkpt lat="46.59842" lon="6.31573">
        <ele>1627.168701</ele>
        <time>2014-06-11T12:28:11Z</time>
      </trkpt>
      <trkpt lat="46.5984" lon="6.31558">
        <ele>1629.572021</ele>
        <time>2014-06-11T12:28:22Z</time>
      </trkpt>
      <trkpt lat="46.59841" lon="6.31554">
        <ele>1629.091309</ele>
        <time>2014-06-11T12:28:26Z</time>
      </trkpt>
      <trkpt lat="46.59839" lon="6.31547">
        <ele>1629.091309</ele>
        <time>2014-06-11T12:28:31Z</time>
      </trkpt>
      <trkpt lat="46.59836" lon="6.31542">
        <ele>1629.572021</ele>
        <time>2014-06-11T12:28:35Z</time>
      </trkpt>
      <trkpt lat="46.59826" lon="6.31524">
        <ele>1629.091309</ele>
        <time>2014-06-11T12:28:50Z</time>
      </trkpt>
      <trkpt lat="46.59825" lon="6.31521">
        <ele>1629.091309</ele>
        <time>2014-06-11T12:28:51Z</time>
      </trkpt>
      <trkpt lat="46.59813" lon="6.31506">
        <ele>1629.091309</ele>
        <time>2014-06-11T12:29:07Z</time>
      </trkpt>
      <trkpt lat="46.59806" lon="6.31493">
        <ele>1628.61084</ele>
        <time>2014-06-11T12:29:21Z</time>
      </trkpt>
      <trkpt lat="46.59798" lon="6.3148">
        <ele>1631.494629</ele>
        <time>2014-06-11T12:29:33Z</time>
      </trkpt>
      <trkpt lat="46.59798" lon="6.31478">
        <ele>1631.01416</ele>
        <time>2014-06-11T12:29:35Z</time>
      </trkpt>
      <trkpt lat="46.59798" lon="6.31471">
        <ele>1631.494629</ele>
        <time>2014-06-11T12:29:40Z</time>
      </trkpt>
      <trkpt lat="46.59798" lon="6.31462">
        <ele>1631.01416</ele>
        <time>2014-06-11T12:29:45Z</time>
      </trkpt>
      <trkpt lat="46.598" lon="6.31454">
        <ele>1631.01416</ele>
        <time>2014-06-11T12:29:50Z</time>
      </trkpt>
      <trkpt lat="46.59797" lon="6.31438">
        <ele>1631.975342</ele>
        <time>2014-06-11T12:30:03Z</time>
      </trkpt>
      <trkpt lat="46.59797" lon="6.31419">
        <ele>1631.01416</ele>
        <time>2014-06-11T12:30:18Z</time>
      </trkpt>
      <trkpt lat="46.59797" lon="6.31417">
        <ele>1631.01416</ele>
        <time>2014-06-11T12:30:19Z</time>
      </trkpt>
      <trkpt lat="46.59793" lon="6.31407">
        <ele>1633.897949</ele>
        <time>2014-06-11T12:30:28Z</time>
      </trkpt>
      <trkpt lat="46.59781" lon="6.3139">
        <ele>1637.262451</ele>
        <time>2014-06-11T12:30:45Z</time>
      </trkpt>
      <trkpt lat="46.59768" lon="6.31374">
        <ele>1639.665771</ele>
        <time>2014-06-11T12:31:04Z</time>
      </trkpt>
      <trkpt lat="46.59757" lon="6.3136">
        <ele>1643.991699</ele>
        <time>2014-06-11T12:31:21Z</time>
      </trkpt>
      <trkpt lat="46.59748" lon="6.31347">
        <ele>1648.317627</ele>
        <time>2014-06-11T12:31:37Z</time>
      </trkpt>
      <trkpt lat="46.59745" lon="6.31345">
        <ele>1647.837158</ele>
        <time>2014-06-11T12:31:42Z</time>
      </trkpt>
      <trkpt lat="46.59743" lon="6.31341">
        <ele>1647.837158</ele>
        <time>2014-06-11T12:31:46Z</time>
      </trkpt>
      <trkpt lat="46.59737" lon="6.31332">
        <ele>1649.279053</ele>
        <time>2014-06-11T12:31:59Z</time>
      </trkpt>
      <trkpt lat="46.59727" lon="6.31325">
        <ele>1650.720947</ele>
        <time>2014-06-11T12:32:14Z</time>
      </trkpt>
      <trkpt lat="46.59721" lon="6.31322">
        <ele>1651.682373</ele>
        <time>2014-06-11T12:32:20Z</time>
      </trkpt>
      <trkpt lat="46.5971" lon="6.31316">
        <ele>1648.79834</ele>
        <time>2014-06-11T12:32:33Z</time>
      </trkpt>
      <trkpt lat="46.59698" lon="6.31312">
        <ele>1649.279053</ele>
        <time>2014-06-11T12:32:43Z</time>
      </trkpt>
      <trkpt lat="46.59686" lon="6.31305">
        <ele>1646.875732</ele>
        <time>2014-06-11T12:32:57Z</time>
      </trkpt>
      <trkpt lat="46.59685" lon="6.31304">
        <ele>1645.914551</ele>
        <time>2014-06-11T12:32:59Z</time>
      </trkpt>
      <trkpt lat="46.59673" lon="6.31301">
        <ele>1643.030273</ele>
        <time>2014-06-11T12:33:13Z</time>
      </trkpt>
      <trkpt lat="46.5966" lon="6.31283">
        <ele>1644.472412</ele>
        <time>2014-06-11T12:33:29Z</time>
      </trkpt>
      <trkpt lat="46.59652" lon="6.31268">
        <ele>1645.914551</ele>
        <time>2014-06-11T12:33:46Z</time>
      </trkpt>
      <trkpt lat="46.59642" lon="6.31254">
        <ele>1646.875732</ele>
        <time>2014-06-11T12:34:00Z</time>
      </trkpt>
      <trkpt lat="46.59636" lon="6.31248">
        <ele>1644.472412</ele>
        <time>2014-06-11T12:34:16Z</time>
      </trkpt>
      <trkpt lat="46.59623" lon="6.31242">
        <ele>1645.433838</ele>
        <time>2014-06-11T12:34:37Z</time>
      </trkpt>
      <trkpt lat="46.59619" lon="6.31232">
        <ele>1648.317627</ele>
        <time>2014-06-11T12:34:47Z</time>
      </trkpt>
      <trkpt lat="46.59617" lon="6.31231">
        <ele>1648.317627</ele>
        <time>2014-06-11T12:35:07Z</time>
      </trkpt>
      <trkpt lat="46.59616" lon="6.31218">
        <ele>1647.356445</ele>
        <time>2014-06-11T12:35:19Z</time>
      </trkpt>
      <trkpt lat="46.59612" lon="6.31207">
        <ele>1648.317627</ele>
        <time>2014-06-11T12:35:33Z</time>
      </trkpt>
      <trkpt lat="46.59603" lon="6.31194">
        <ele>1651.682373</ele>
        <time>2014-06-11T12:35:48Z</time>
      </trkpt>
      <trkpt lat="46.59598" lon="6.31188">
        <ele>1656.008057</ele>
        <time>2014-06-11T12:35:59Z</time>
      </trkpt>
      <trkpt lat="46.59588" lon="6.31181">
        <ele>1654.566162</ele>
        <time>2014-06-11T12:37:37Z</time>
      </trkpt>
      <trkpt lat="46.59583" lon="6.31175">
        <ele>1656.008057</ele>
        <time>2014-06-11T12:37:43Z</time>
      </trkpt>
      <trkpt lat="46.59572" lon="6.31164">
        <ele>1657.450195</ele>
        <time>2014-06-11T12:37:57Z</time>
      </trkpt>
      <trkpt lat="46.59569" lon="6.3116">
        <ele>1658.411377</ele>
        <time>2014-06-11T12:38:02Z</time>
      </trkpt>
      <trkpt lat="46.5956" lon="6.31148">
        <ele>1660.334229</ele>
        <time>2014-06-11T12:38:17Z</time>
      </trkpt>
      <trkpt lat="46.59551" lon="6.31135">
        <ele>1662.256836</ele>
        <time>2014-06-11T12:38:34Z</time>
      </trkpt>
      <trkpt lat="46.59541" lon="6.31124">
        <ele>1663.69873</ele>
        <time>2014-06-11T12:38:47Z</time>
      </trkpt>
      <trkpt lat="46.59531" lon="6.31111">
        <ele>1666.102051</ele>
        <time>2014-06-11T12:39:00Z</time>
      </trkpt>
      <trkpt lat="46.59526" lon="6.31102">
        <ele>1666.102051</ele>
        <time>2014-06-11T12:39:08Z</time>
      </trkpt>
      <trkpt lat="46.59519" lon="6.31091">
        <ele>1666.102051</ele>
        <time>2014-06-11T12:39:21Z</time>
      </trkpt>
      <trkpt lat="46.59517" lon="6.31087">
        <ele>1665.621582</ele>
        <time>2014-06-11T12:39:30Z</time>
      </trkpt>
      <trkpt lat="46.59508" lon="6.31078">
        <ele>1668.024658</ele>
        <time>2014-06-11T12:39:41Z</time>
      </trkpt>
      <trkpt lat="46.59502" lon="6.31073">
        <ele>1668.024658</ele>
        <time>2014-06-11T12:39:53Z</time>
      </trkpt>
      <trkpt lat="46.59497" lon="6.31065">
        <ele>1672.350586</ele>
        <time>2014-06-11T12:40:09Z</time>
      </trkpt>
      <trkpt lat="46.59492" lon="6.31038">
        <ele>1674.753906</ele>
        <time>2014-06-11T12:40:37Z</time>
      </trkpt>
      <trkpt lat="46.59487" lon="6.31023">
        <ele>1674.273193</ele>
        <time>2014-06-11T12:41:02Z</time>
      </trkpt>
      <trkpt lat="46.59484" lon="6.31012">
        <ele>1673.312012</ele>
        <time>2014-06-11T12:41:14Z</time>
      </trkpt>
      <trkpt lat="46.5948" lon="6.31004">
        <ele>1673.312012</ele>
        <time>2014-06-11T12:41:27Z</time>
      </trkpt>
      <trkpt lat="46.59485" lon="6.31">
        <ele>1673.312012</ele>
        <time>2014-06-11T12:42:14Z</time>
      </trkpt>
      <trkpt lat="46.59489" lon="6.30994">
        <ele>1674.753906</ele>
        <time>2014-06-11T12:42:32Z</time>
      </trkpt>
      <trkpt lat="46.59475" lon="6.3098">
        <ele>1669.466797</ele>
        <time>2014-06-11T12:46:19Z</time>
      </trkpt>
      <trkpt lat="46.59477" lon="6.30987">
        <ele>1669.947266</ele>
        <time>2014-06-11T12:46:59Z</time>
      </trkpt>
      <trkpt lat="46.59463" lon="6.30967">
        <ele>1668.505371</ele>
        <time>2014-06-11T12:47:27Z</time>
      </trkpt>
      <trkpt lat="46.59456" lon="6.30956">
        <ele>1667.063477</ele>
        <time>2014-06-11T12:47:41Z</time>
      </trkpt>
      <trkpt lat="46.59453" lon="6.30949">
        <ele>1665.140869</ele>
        <time>2014-06-11T12:47:55Z</time>
      </trkpt>
      <trkpt lat="46.59443" lon="6.3093">
        <ele>1661.295654</ele>
        <time>2014-06-11T12:48:45Z</time>
      </trkpt>
      <trkpt lat="46.59441" lon="6.30926">
        <ele>1660.814941</ele>
        <time>2014-06-11T12:48:48Z</time>
      </trkpt>
      <trkpt lat="46.59433" lon="6.30909">
        <ele>1656.008057</ele>
        <time>2014-06-11T12:49:02Z</time>
      </trkpt>
      <trkpt lat="46.59427" lon="6.30893">
        <ele>1654.085693</ele>
        <time>2014-06-11T12:49:15Z</time>
      </trkpt>
      <trkpt lat="46.59415" lon="6.30883">
        <ele>1651.20166</ele>
        <time>2014-06-11T12:49:34Z</time>
      </trkpt>
      <trkpt lat="46.59415" lon="6.30879">
        <ele>1650.240479</ele>
        <time>2014-06-11T12:49:37Z</time>
      </trkpt>
      <trkpt lat="46.59409" lon="6.30868">
        <ele>1647.837158</ele>
        <time>2014-06-11T12:49:44Z</time>
      </trkpt>
      <trkpt lat="46.59399" lon="6.30855">
        <ele>1645.914551</ele>
        <time>2014-06-11T12:50:02Z</time>
      </trkpt>
      <trkpt lat="46.59394" lon="6.30834">
        <ele>1641.588379</ele>
        <time>2014-06-11T12:50:15Z</time>
      </trkpt>
      <trkpt lat="46.59396" lon="6.30826">
        <ele>1641.588379</ele>
        <time>2014-06-11T12:50:30Z</time>
      </trkpt>
      <trkpt lat="46.59398" lon="6.30812">
        <ele>1638.70459</ele>
        <time>2014-06-11T12:50:42Z</time>
      </trkpt>
      <trkpt lat="46.59395" lon="6.30795">
        <ele>1636.781738</ele>
        <time>2014-06-11T12:50:54Z</time>
      </trkpt>
      <trkpt lat="46.59394" lon="6.30775">
        <ele>1635.820557</ele>
        <time>2014-06-11T12:51:17Z</time>
      </trkpt>
      <trkpt lat="46.59393" lon="6.3076">
        <ele>1636.30127</ele>
        <time>2014-06-11T12:51:31Z</time>
      </trkpt>
      <trkpt lat="46.59387" lon="6.30747">
        <ele>1635.820557</ele>
        <time>2014-06-11T12:51:50Z</time>
      </trkpt>
      <trkpt lat="46.5939" lon="6.30738">
        <ele>1634.378662</ele>
        <time>2014-06-11T12:51:56Z</time>
      </trkpt>
      <trkpt lat="46.59385" lon="6.30718">
        <ele>1633.897949</ele>
        <time>2014-06-11T12:52:13Z</time>
      </trkpt>
      <trkpt lat="46.5937" lon="6.30687">
        <ele>1630.533447</ele>
        <time>2014-06-11T12:53:11Z</time>
      </trkpt>
      <trkpt lat="46.59361" lon="6.30676">
        <ele>1631.975342</ele>
        <time>2014-06-11T12:53:25Z</time>
      </trkpt>
      <trkpt lat="46.59358" lon="6.3066">
        <ele>1631.975342</ele>
        <time>2014-06-11T12:53:44Z</time>
      </trkpt>
      <trkpt lat="46.59357" lon="6.30644">
        <ele>1631.01416</ele>
        <time>2014-06-11T12:54:07Z</time>
      </trkpt>
      <trkpt lat="46.59347" lon="6.30628">
        <ele>1631.975342</ele>
        <time>2014-06-11T12:54:23Z</time>
      </trkpt>
      <trkpt lat="46.59345" lon="6.30613">
        <ele>1630.533447</ele>
        <time>2014-06-11T12:54:38Z</time>
      </trkpt>
      <trkpt lat="46.59341" lon="6.30596">
        <ele>1628.61084</ele>
        <time>2014-06-11T12:54:52Z</time>
      </trkpt>
      <trkpt lat="46.59343" lon="6.3059">
        <ele>1628.61084</ele>
        <time>2014-06-11T12:54:56Z</time>
      </trkpt>
      <trkpt lat="46.5934" lon="6.30575">
        <ele>1627.64917</ele>
        <time>2014-06-11T12:55:08Z</time>
      </trkpt>
      <trkpt lat="46.59339" lon="6.30571">
        <ele>1628.130127</ele>
        <time>2014-06-11T12:55:11Z</time>
      </trkpt>
      <trkpt lat="46.59338" lon="6.30566">
        <ele>1628.61084</ele>
        <time>2014-06-11T12:55:15Z</time>
      </trkpt>
      <trkpt lat="46.59337" lon="6.30555">
        <ele>1629.091309</ele>
        <time>2014-06-11T12:55:25Z</time>
      </trkpt>
      <trkpt lat="46.59333" lon="6.30544">
        <ele>1629.572021</ele>
        <time>2014-06-11T12:55:41Z</time>
      </trkpt>
      <trkpt lat="46.59325" lon="6.30544">
        <ele>1630.533447</ele>
        <time>2014-06-11T12:56:14Z</time>
      </trkpt>
      <trkpt lat="46.5933" lon="6.30531">
        <ele>1628.61084</ele>
        <time>2014-06-11T12:57:27Z</time>
      </trkpt>
      <trkpt lat="46.5933" lon="6.30523">
        <ele>1622.842773</ele>
        <time>2014-06-11T12:57:53Z</time>
      </trkpt>
      <trkpt lat="46.59332" lon="6.30503">
        <ele>1619.95874</ele>
        <time>2014-06-11T12:58:14Z</time>
      </trkpt>
      <trkpt lat="46.59331" lon="6.30488">
        <ele>1618.997559</ele>
        <time>2014-06-11T12:58:26Z</time>
      </trkpt>
      <trkpt lat="46.59329" lon="6.30472">
        <ele>1616.594238</ele>
        <time>2014-06-11T12:58:40Z</time>
      </trkpt>
      <trkpt lat="46.59327" lon="6.30467">
        <ele>1616.594238</ele>
        <time>2014-06-11T12:58:43Z</time>
      </trkpt>
      <trkpt lat="46.59323" lon="6.30453">
        <ele>1615.152344</ele>
        <time>2014-06-11T12:58:54Z</time>
      </trkpt>
      <trkpt lat="46.59323" lon="6.30449">
        <ele>1614.671631</ele>
        <time>2014-06-11T12:58:57Z</time>
      </trkpt>
      <trkpt lat="46.59323" lon="6.30434">
        <ele>1613.710205</ele>
        <time>2014-06-11T12:59:07Z</time>
      </trkpt>
      <trkpt lat="46.59323" lon="6.30428">
        <ele>1612.268311</ele>
        <time>2014-06-11T12:59:12Z</time>
      </trkpt>
      <trkpt lat="46.59318" lon="6.30416">
        <ele>1612.268311</ele>
        <time>2014-06-11T12:59:24Z</time>
      </trkpt>
      <trkpt lat="46.59318" lon="6.30401">
        <ele>1611.306885</ele>
        <time>2014-06-11T12:59:40Z</time>
      </trkpt>
      <trkpt lat="46.59318" lon="6.30397">
        <ele>1610.826172</ele>
        <time>2014-06-11T12:59:43Z</time>
      </trkpt>
      <trkpt lat="46.59313" lon="6.30376">
        <ele>1607.46167</ele>
        <time>2014-06-11T12:59:55Z</time>
      </trkpt>
      <trkpt lat="46.59308" lon="6.30357">
        <ele>1605.539063</ele>
        <time>2014-06-11T13:00:09Z</time>
      </trkpt>
      <trkpt lat="46.59306" lon="6.30339">
        <ele>1602.174316</ele>
        <time>2014-06-11T13:00:23Z</time>
      </trkpt>
      <trkpt lat="46.59303" lon="6.30323">
        <ele>1599.77124</ele>
        <time>2014-06-11T13:00:33Z</time>
      </trkpt>
      <trkpt lat="46.59303" lon="6.30319">
        <ele>1598.809814</ele>
        <time>2014-06-11T13:00:35Z</time>
      </trkpt>
      <trkpt lat="46.59301" lon="6.30311">
        <ele>1596.887207</ele>
        <time>2014-06-11T13:00:41Z</time>
      </trkpt>
      <trkpt lat="46.59294" lon="6.30267">
        <ele>1595.445068</ele>
        <time>2014-06-11T13:01:32Z</time>
      </trkpt>
      <trkpt lat="46.59291" lon="6.30235">
        <ele>1594.003174</ele>
        <time>2014-06-11T13:01:56Z</time>
      </trkpt>
      <trkpt lat="46.59287" lon="6.30217">
        <ele>1593.041748</ele>
        <time>2014-06-11T13:02:08Z</time>
      </trkpt>
      <trkpt lat="46.59288" lon="6.30208">
        <ele>1592.080566</ele>
        <time>2014-06-11T13:02:15Z</time>
      </trkpt>
      <trkpt lat="46.59286" lon="6.30199">
        <ele>1590.638428</ele>
        <time>2014-06-11T13:02:20Z</time>
      </trkpt>
      <trkpt lat="46.59284" lon="6.30175">
        <ele>1590.638428</ele>
        <time>2014-06-11T13:02:34Z</time>
      </trkpt>
      <trkpt lat="46.59278" lon="6.30154">
        <ele>1592.561279</ele>
        <time>2014-06-11T13:02:45Z</time>
      </trkpt>
      <trkpt lat="46.59274" lon="6.30138">
        <ele>1589.677246</ele>
        <time>2014-06-11T13:03:00Z</time>
      </trkpt>
      <trkpt lat="46.5927" lon="6.30124">
        <ele>1585.832031</ele>
        <time>2014-06-11T13:03:10Z</time>
      </trkpt>
      <trkpt lat="46.59269" lon="6.30122">
        <ele>1585.351318</ele>
        <time>2014-06-11T13:03:12Z</time>
      </trkpt>
      <trkpt lat="46.59268" lon="6.3012">
        <ele>1584.87085</ele>
        <time>2014-06-11T13:03:14Z</time>
      </trkpt>
      <trkpt lat="46.59263" lon="6.30101">
        <ele>1579.102539</ele>
        <time>2014-06-11T13:03:27Z</time>
      </trkpt>
      <trkpt lat="46.59255" lon="6.30091">
        <ele>1575.257324</ele>
        <time>2014-06-11T13:03:37Z</time>
      </trkpt>
      <trkpt lat="46.59245" lon="6.30078">
        <ele>1571.412109</ele>
        <time>2014-06-11T13:03:51Z</time>
      </trkpt>
      <trkpt lat="46.59239" lon="6.30069">
        <ele>1569.970215</ele>
        <time>2014-06-11T13:04:03Z</time>
      </trkpt>
      <trkpt lat="46.59232" lon="6.30051">
        <ele>1569.489746</ele>
        <time>2014-06-11T13:04:15Z</time>
      </trkpt>
      <trkpt lat="46.5923" lon="6.30046">
        <ele>1568.52832</ele>
        <time>2014-06-11T13:04:20Z</time>
      </trkpt>
      <trkpt lat="46.59219" lon="6.30029">
        <ele>1560.837646</ele>
        <time>2014-06-11T13:04:34Z</time>
      </trkpt>
      <trkpt lat="46.59209" lon="6.30021">
        <ele>1562.279541</ele>
        <time>2014-06-11T13:04:42Z</time>
      </trkpt>
      <trkpt lat="46.59205" lon="6.30019">
        <ele>1565.163818</ele>
        <time>2014-06-11T13:04:46Z</time>
      </trkpt>
      <trkpt lat="46.59203" lon="6.30017">
        <ele>1566.125</ele>
        <time>2014-06-11T13:04:49Z</time>
      </trkpt>
      <trkpt lat="46.59189" lon="6.30009">
        <ele>1566.125</ele>
        <time>2014-06-11T13:05:02Z</time>
      </trkpt>
      <trkpt lat="46.59186" lon="6.30007">
        <ele>1566.125</ele>
        <time>2014-06-11T13:05:05Z</time>
      </trkpt>
      <trkpt lat="46.59182" lon="6.30005">
        <ele>1565.163818</ele>
        <time>2014-06-11T13:05:09Z</time>
      </trkpt>
      <trkpt lat="46.59181" lon="6.29991">
        <ele>1566.605713</ele>
        <time>2014-06-11T13:05:20Z</time>
      </trkpt>
      <trkpt lat="46.59188" lon="6.29985">
        <ele>1568.047607</ele>
        <time>2014-06-11T13:05:29Z</time>
      </trkpt>
      <trkpt lat="46.59203" lon="6.29975">
        <ele>1571.892822</ele>
        <time>2014-06-11T13:05:42Z</time>
      </trkpt>
      <trkpt lat="46.59206" lon="6.29972">
        <ele>1572.373535</ele>
        <time>2014-06-11T13:05:45Z</time>
      </trkpt>
      <trkpt lat="46.59223" lon="6.2997">
        <ele>1570.931641</ele>
        <time>2014-06-11T13:05:59Z</time>
      </trkpt>
      <trkpt lat="46.59233" lon="6.29978">
        <ele>1569.489746</ele>
        <time>2014-06-11T13:06:11Z</time>
      </trkpt>
      <trkpt lat="46.59247" lon="6.29985">
        <ele>1569.009033</ele>
        <time>2014-06-11T13:06:23Z</time>
      </trkpt>
      <trkpt lat="46.59248" lon="6.29986">
        <ele>1569.009033</ele>
        <time>2014-06-11T13:06:24Z</time>
      </trkpt>
      <trkpt lat="46.59265" lon="6.29996">
        <ele>1569.970215</ele>
        <time>2014-06-11T13:06:40Z</time>
      </trkpt>
      <trkpt lat="46.59278" lon="6.29999">
        <ele>1570.450928</ele>
        <time>2014-06-11T13:06:51Z</time>
      </trkpt>
      <trkpt lat="46.59293" lon="6.3">
        <ele>1569.009033</ele>
        <time>2014-06-11T13:07:09Z</time>
      </trkpt>
      <trkpt lat="46.59303" lon="6.30001">
        <ele>1567.566895</ele>
        <time>2014-06-11T13:07:52Z</time>
      </trkpt>
      <trkpt lat="46.59319" lon="6.3001">
        <ele>1565.163818</ele>
        <time>2014-06-11T13:08:11Z</time>
      </trkpt>
      <trkpt lat="46.59324" lon="6.30013">
        <ele>1565.163818</ele>
        <time>2014-06-11T13:08:17Z</time>
      </trkpt>
      <trkpt lat="46.59335" lon="6.30023">
        <ele>1563.721436</ele>
        <time>2014-06-11T13:08:29Z</time>
      </trkpt>
      <trkpt lat="46.59339" lon="6.30027">
        <ele>1564.202393</ele>
        <time>2014-06-11T13:08:34Z</time>
      </trkpt>
      <trkpt lat="46.59349" lon="6.30034">
        <ele>1564.683105</ele>
        <time>2014-06-11T13:08:44Z</time>
      </trkpt>
      <trkpt lat="46.59357" lon="6.30043">
        <ele>1565.163818</ele>
        <time>2014-06-11T13:08:53Z</time>
      </trkpt>
      <trkpt lat="46.59367" lon="6.30053">
        <ele>1564.683105</ele>
        <time>2014-06-11T13:09:06Z</time>
      </trkpt>
      <trkpt lat="46.59368" lon="6.30053">
        <ele>1564.683105</ele>
        <time>2014-06-11T13:09:07Z</time>
      </trkpt>
      <trkpt lat="46.59372" lon="6.30058">
        <ele>1565.163818</ele>
        <time>2014-06-11T13:09:12Z</time>
      </trkpt>
      <trkpt lat="46.59374" lon="6.3006">
        <ele>1565.163818</ele>
        <time>2014-06-11T13:09:15Z</time>
      </trkpt>
      <trkpt lat="46.59382" lon="6.30079">
        <ele>1562.760254</ele>
        <time>2014-06-11T13:09:29Z</time>
      </trkpt>
      <trkpt lat="46.59397" lon="6.30083">
        <ele>1558.434326</ele>
        <time>2014-06-11T13:09:42Z</time>
      </trkpt>
      <trkpt lat="46.59407" lon="6.30084">
        <ele>1555.069824</ele>
        <time>2014-06-11T13:09:54Z</time>
      </trkpt>
      <trkpt lat="46.5942" lon="6.30092">
        <ele>1552.666504</ele>
        <time>2014-06-11T13:10:10Z</time>
      </trkpt>
      <trkpt lat="46.59429" lon="6.30105">
        <ele>1549.782715</ele>
        <time>2014-06-11T13:10:26Z</time>
      </trkpt>
      <trkpt lat="46.59445" lon="6.3012">
        <ele>1548.340576</ele>
        <time>2014-06-11T13:13:09Z</time>
      </trkpt>
      <trkpt lat="46.59457" lon="6.30127">
        <ele>1547.37915</ele>
        <time>2014-06-11T13:13:27Z</time>
      </trkpt>
      <trkpt lat="46.59464" lon="6.30133">
        <ele>1545.456543</ele>
        <time>2014-06-11T13:13:36Z</time>
      </trkpt>
      <trkpt lat="46.5948" lon="6.30139">
        <ele>1542.572754</ele>
        <time>2014-06-11T13:14:01Z</time>
      </trkpt>
      <trkpt lat="46.595" lon="6.30152">
        <ele>1544.014648</ele>
        <time>2014-06-11T13:14:29Z</time>
      </trkpt>
      <trkpt lat="46.5952" lon="6.30169">
        <ele>1543.053223</ele>
        <time>2014-06-11T13:14:48Z</time>
      </trkpt>
      <trkpt lat="46.59553" lon="6.30193">
        <ele>1542.092041</ele>
        <time>2014-06-11T13:15:15Z</time>
      </trkpt>
      <trkpt lat="46.59558" lon="6.30199">
        <ele>1543.533936</ele>
        <time>2014-06-11T13:15:20Z</time>
      </trkpt>
      <trkpt lat="46.59557" lon="6.30205">
        <ele>1540.649902</ele>
        <time>2014-06-11T13:15:24Z</time>
      </trkpt>
      <trkpt lat="46.5956" lon="6.30207">
        <ele>1538.246826</ele>
        <time>2014-06-11T13:15:27Z</time>
      </trkpt>
      <trkpt lat="46.59569" lon="6.30219">
        <ele>1536.804688</ele>
        <time>2014-06-11T13:15:45Z</time>
      </trkpt>
      <trkpt lat="46.59584" lon="6.30239">
        <ele>1532.959473</ele>
        <time>2014-06-11T13:16:09Z</time>
      </trkpt>
      <trkpt lat="46.59641" lon="6.30293">
        <ele>1519.020508</ele>
        <time>2014-06-11T13:17:12Z</time>
      </trkpt>
      <trkpt lat="46.59662" lon="6.3031">
        <ele>1516.136475</ele>
        <time>2014-06-11T13:17:28Z</time>
      </trkpt>
      <trkpt lat="46.59676" lon="6.30324">
        <ele>1513.252441</ele>
        <time>2014-06-11T13:17:40Z</time>
      </trkpt>
      <trkpt lat="46.59688" lon="6.3033">
        <ele>1511.329834</ele>
        <time>2014-06-11T13:17:50Z</time>
      </trkpt>
      <trkpt lat="46.59698" lon="6.30338">
        <ele>1509.887695</ele>
        <time>2014-06-11T13:18:00Z</time>
      </trkpt>
      <trkpt lat="46.59699" lon="6.30339">
        <ele>1508.926514</ele>
        <time>2014-06-11T13:18:02Z</time>
      </trkpt>
      <trkpt lat="46.59714" lon="6.30346">
        <ele>1505.081299</ele>
        <time>2014-06-11T13:18:17Z</time>
      </trkpt>
      <trkpt lat="46.5972" lon="6.30346">
        <ele>1504.120117</ele>
        <time>2014-06-11T13:18:24Z</time>
      </trkpt>
      <trkpt lat="46.59725" lon="6.30339">
        <ele>1501.236084</ele>
        <time>2014-06-11T13:18:37Z</time>
      </trkpt>
      <trkpt lat="46.5973" lon="6.30336">
        <ele>1499.793945</ele>
        <time>2014-06-11T13:18:45Z</time>
      </trkpt>
      <trkpt lat="46.59734" lon="6.30334">
        <ele>1498.351807</ele>
        <time>2014-06-11T13:18:48Z</time>
      </trkpt>
      <trkpt lat="46.59742" lon="6.30328">
        <ele>1496.909912</ele>
        <time>2014-06-11T13:18:56Z</time>
      </trkpt>
      <trkpt lat="46.59757" lon="6.30338">
        <ele>1494.506592</ele>
        <time>2014-06-11T13:19:11Z</time>
      </trkpt>
      <trkpt lat="46.59773" lon="6.30345">
        <ele>1494.987305</ele>
        <time>2014-06-11T13:19:24Z</time>
      </trkpt>
      <trkpt lat="46.59777" lon="6.30346">
        <ele>1496.429443</ele>
        <time>2014-06-11T13:19:27Z</time>
      </trkpt>
      <trkpt lat="46.59785" lon="6.3035">
        <ele>1494.506592</ele>
        <time>2014-06-11T13:19:36Z</time>
      </trkpt>
      <trkpt lat="46.59796" lon="6.30349">
        <ele>1494.987305</ele>
        <time>2014-06-11T13:19:45Z</time>
      </trkpt>
      <trkpt lat="46.59805" lon="6.30347">
        <ele>1495.94873</ele>
        <time>2014-06-11T13:19:53Z</time>
      </trkpt>
      <trkpt lat="46.5982" lon="6.3034">
        <ele>1496.909912</ele>
        <time>2014-06-11T13:20:05Z</time>
      </trkpt>
      <trkpt lat="46.59833" lon="6.30347">
        <ele>1500.274902</ele>
        <time>2014-06-11T13:20:17Z</time>
      </trkpt>
      <trkpt lat="46.59844" lon="6.30352">
        <ele>1498.351807</ele>
        <time>2014-06-11T13:20:29Z</time>
      </trkpt>
      <trkpt lat="46.59854" lon="6.30371">
        <ele>1495.468018</ele>
        <time>2014-06-11T13:20:43Z</time>
      </trkpt>
      <trkpt lat="46.59861" lon="6.30394">
        <ele>1493.54541</ele>
        <time>2014-06-11T13:21:01Z</time>
      </trkpt>
      <trkpt lat="46.59878" lon="6.3041">
        <ele>1494.987305</ele>
        <time>2014-06-11T13:21:17Z</time>
      </trkpt>
      <trkpt lat="46.59879" lon="6.30411">
        <ele>1494.987305</ele>
        <time>2014-06-11T13:21:18Z</time>
      </trkpt>
      <trkpt lat="46.59888" lon="6.30432">
        <ele>1496.909912</ele>
        <time>2014-06-11T13:21:30Z</time>
      </trkpt>
      <trkpt lat="46.599" lon="6.30443">
        <ele>1496.909912</ele>
        <time>2014-06-11T13:21:43Z</time>
      </trkpt>
      <trkpt lat="46.59903" lon="6.30439">
        <ele>1495.468018</ele>
        <time>2014-06-11T13:21:46Z</time>
      </trkpt>
      <trkpt lat="46.59908" lon="6.30441">
        <ele>1494.026123</ele>
        <time>2014-06-11T13:21:51Z</time>
      </trkpt>
      <trkpt lat="46.59913" lon="6.30443">
        <ele>1492.103516</ele>
        <time>2014-06-11T13:21:58Z</time>
      </trkpt>
      <trkpt lat="46.59924" lon="6.30446">
        <ele>1489.700195</ele>
        <time>2014-06-11T13:22:07Z</time>
      </trkpt>
      <trkpt lat="46.59939" lon="6.30451">
        <ele>1485.374268</ele>
        <time>2014-06-11T13:22:25Z</time>
      </trkpt>
      <trkpt lat="46.59944" lon="6.30449">
        <ele>1483.451416</ele>
        <time>2014-06-11T13:22:30Z</time>
      </trkpt>
      <trkpt lat="46.5996" lon="6.30435">
        <ele>1479.125488</ele>
        <time>2014-06-11T13:22:43Z</time>
      </trkpt>
      <trkpt lat="46.59969" lon="6.3042">
        <ele>1479.125488</ele>
        <time>2014-06-11T13:22:55Z</time>
      </trkpt>
      <trkpt lat="46.59973" lon="6.30402">
        <ele>1479.606201</ele>
        <time>2014-06-11T13:23:15Z</time>
      </trkpt>
      <trkpt lat="46.59977" lon="6.30391">
        <ele>1478.64502</ele>
        <time>2014-06-11T13:23:25Z</time>
      </trkpt>
      <trkpt lat="46.5999" lon="6.30379">
        <ele>1476.241699</ele>
        <time>2014-06-11T13:23:39Z</time>
      </trkpt>
      <trkpt lat="46.60003" lon="6.3037">
        <ele>1471.915771</ele>
        <time>2014-06-11T13:23:58Z</time>
      </trkpt>
      <trkpt lat="46.6001" lon="6.30356">
        <ele>1469.031982</ele>
        <time>2014-06-11T13:24:11Z</time>
      </trkpt>
      <trkpt lat="46.60021" lon="6.3033">
        <ele>1464.705811</ele>
        <time>2014-06-11T13:24:35Z</time>
      </trkpt>
      <trkpt lat="46.60035" lon="6.30315">
        <ele>1464.225098</ele>
        <time>2014-06-11T13:24:54Z</time>
      </trkpt>
      <trkpt lat="46.60052" lon="6.30288">
        <ele>1465.667236</ele>
        <time>2014-06-11T13:25:19Z</time>
      </trkpt>
      <trkpt lat="46.60073" lon="6.30289">
        <ele>1466.628418</ele>
        <time>2014-06-11T13:25:38Z</time>
      </trkpt>
      <trkpt lat="46.6008" lon="6.30286">
        <ele>1466.147705</ele>
        <time>2014-06-11T13:25:45Z</time>
      </trkpt>
      <trkpt lat="46.60089" lon="6.30289">
        <ele>1466.628418</ele>
        <time>2014-06-11T13:25:53Z</time>
      </trkpt>
      <trkpt lat="46.60096" lon="6.30291">
        <ele>1465.186523</ele>
        <time>2014-06-11T13:25:58Z</time>
      </trkpt>
      <trkpt lat="46.601" lon="6.30295">
        <ele>1464.705811</ele>
        <time>2014-06-11T13:26:03Z</time>
      </trkpt>
      <trkpt lat="46.60106" lon="6.30298">
        <ele>1465.186523</ele>
        <time>2014-06-11T13:26:07Z</time>
      </trkpt>
      <trkpt lat="46.60117" lon="6.30297">
        <ele>1465.667236</ele>
        <time>2014-06-11T13:26:21Z</time>
      </trkpt>
      <trkpt lat="46.6013" lon="6.30297">
        <ele>1460.860596</ele>
        <time>2014-06-11T13:26:34Z</time>
      </trkpt>
      <trkpt lat="46.60138" lon="6.30299">
        <ele>1463.744385</ele>
        <time>2014-06-11T13:26:45Z</time>
      </trkpt>
      <trkpt lat="46.6014" lon="6.30306">
        <ele>1464.225098</ele>
        <time>2014-06-11T13:26:50Z</time>
      </trkpt>
      <trkpt lat="46.60138" lon="6.30312">
        <ele>1464.225098</ele>
        <time>2014-06-11T13:26:53Z</time>
      </trkpt>
      <trkpt lat="46.60139" lon="6.30316">
        <ele>1465.667236</ele>
        <time>2014-06-11T13:26:55Z</time>
      </trkpt>
      <trkpt lat="46.60149" lon="6.30314">
        <ele>1463.744385</ele>
        <time>2014-06-11T13:27:09Z</time>
      </trkpt>
      <trkpt lat="46.60168" lon="6.30313">
        <ele>1465.186523</ele>
        <time>2014-06-11T13:27:31Z</time>
      </trkpt>
      <trkpt lat="46.60181" lon="6.30303">
        <ele>1463.744385</ele>
        <time>2014-06-11T13:27:46Z</time>
      </trkpt>
      <trkpt lat="46.60194" lon="6.30291">
        <ele>1461.822021</ele>
        <time>2014-06-11T13:28:00Z</time>
      </trkpt>
      <trkpt lat="46.60204" lon="6.30282">
        <ele>1458.457275</ele>
        <time>2014-06-11T13:28:14Z</time>
      </trkpt>
      <trkpt lat="46.60215" lon="6.30274">
        <ele>1451.728027</ele>
        <time>2014-06-11T13:28:32Z</time>
      </trkpt>
      <trkpt lat="46.60233" lon="6.30262">
        <ele>1447.882813</ele>
        <time>2014-06-11T13:28:57Z</time>
      </trkpt>
      <trkpt lat="46.60232" lon="6.30206">
        <ele>1442.595703</ele>
        <time>2014-06-11T13:30:01Z</time>
      </trkpt>
      <trkpt lat="46.60233" lon="6.3019">
        <ele>1437.30835</ele>
        <time>2014-06-11T13:30:28Z</time>
      </trkpt>
      <trkpt lat="46.60236" lon="6.30159">
        <ele>1433.943604</ele>
        <time>2014-06-11T13:30:44Z</time>
      </trkpt>
      <trkpt lat="46.60231" lon="6.30103">
        <ele>1426.253174</ele>
        <time>2014-06-11T13:31:29Z</time>
      </trkpt>
      <trkpt lat="46.60241" lon="6.30077">
        <ele>1423.849854</ele>
        <time>2014-06-11T13:31:44Z</time>
      </trkpt>
      <trkpt lat="46.60249" lon="6.30067">
        <ele>1423.849854</ele>
        <time>2014-06-11T13:32:03Z</time>
      </trkpt>
      <trkpt lat="46.60265" lon="6.30051">
        <ele>1421.446533</ele>
        <time>2014-06-11T13:32:25Z</time>
      </trkpt>
      <trkpt lat="46.60275" lon="6.30046">
        <ele>1420.966064</ele>
        <time>2014-06-11T13:32:36Z</time>
      </trkpt>
      <trkpt lat="46.60286" lon="6.30044">
        <ele>1421.446533</ele>
        <time>2014-06-11T13:32:49Z</time>
      </trkpt>
      <trkpt lat="46.60302" lon="6.30038">
        <ele>1419.523926</ele>
        <time>2014-06-11T13:33:05Z</time>
      </trkpt>
      <trkpt lat="46.60315" lon="6.30041">
        <ele>1418.5625</ele>
        <time>2014-06-11T13:33:26Z</time>
      </trkpt>
      <trkpt lat="46.6032" lon="6.30053">
        <ele>1419.043213</ele>
        <time>2014-06-11T13:33:34Z</time>
      </trkpt>
      <trkpt lat="46.60332" lon="6.30065">
        <ele>1420.485352</ele>
        <time>2014-06-11T13:33:46Z</time>
      </trkpt>
      <trkpt lat="46.60338" lon="6.30064">
        <ele>1420.004639</ele>
        <time>2014-06-11T13:33:53Z</time>
      </trkpt>
      <trkpt lat="46.60342" lon="6.30063">
        <ele>1420.485352</ele>
        <time>2014-06-11T13:33:55Z</time>
      </trkpt>
      <trkpt lat="46.60354" lon="6.3007">
        <ele>1413.755859</ele>
        <time>2014-06-11T13:34:10Z</time>
      </trkpt>
      <trkpt lat="46.60384" lon="6.30042">
        <ele>1399.336182</ele>
        <time>2014-06-11T13:34:45Z</time>
      </trkpt>
      <trkpt lat="46.60385" lon="6.30041">
        <ele>1399.336182</ele>
        <time>2014-06-11T13:34:46Z</time>
      </trkpt>
      <trkpt lat="46.60398" lon="6.30031">
        <ele>1395.97168</ele>
        <time>2014-06-11T13:35:06Z</time>
      </trkpt>
      <trkpt lat="46.60415" lon="6.3001">
        <ele>1393.568359</ele>
        <time>2014-06-11T13:35:22Z</time>
      </trkpt>
      <trkpt lat="46.60424" lon="6.29986">
        <ele>1394.049072</ele>
        <time>2014-06-11T13:35:39Z</time>
      </trkpt>
      <trkpt lat="46.60444" lon="6.29947">
        <ele>1388.761963</ele>
        <time>2014-06-11T13:36:14Z</time>
      </trkpt>
      <trkpt lat="46.60483" lon="6.29919">
        <ele>1384.916504</ele>
        <time>2014-06-11T13:37:05Z</time>
      </trkpt>
      <trkpt lat="46.60534" lon="6.29886">
        <ele>1374.822754</ele>
        <time>2014-06-11T13:38:02Z</time>
      </trkpt>
      <trkpt lat="46.60558" lon="6.29866">
        <ele>1360.883545</ele>
        <time>2014-06-11T13:38:32Z</time>
      </trkpt>
      <trkpt lat="46.60568" lon="6.2986">
        <ele>1355.596191</ele>
        <time>2014-06-11T13:38:50Z</time>
      </trkpt>
      <trkpt lat="46.60601" lon="6.29841">
        <ele>1357.03833</ele>
        <time>2014-06-11T13:39:15Z</time>
      </trkpt>
      <trkpt lat="46.60623" lon="6.29832">
        <ele>1357.519043</ele>
        <time>2014-06-11T13:39:38Z</time>
      </trkpt>
      <trkpt lat="46.60652" lon="6.29823">
        <ele>1356.076904</ele>
        <time>2014-06-11T13:40:05Z</time>
      </trkpt>
      <trkpt lat="46.60679" lon="6.29811">
        <ele>1356.076904</ele>
        <time>2014-06-11T13:40:32Z</time>
      </trkpt>
      <trkpt lat="46.607" lon="6.29804">
        <ele>1350.309082</ele>
        <time>2014-06-11T13:40:53Z</time>
      </trkpt>
      <trkpt lat="46.60735" lon="6.2981">
        <ele>1348.38623</ele>
        <time>2014-06-11T13:41:19Z</time>
      </trkpt>
      <trkpt lat="46.60739" lon="6.29811">
        <ele>1347.905762</ele>
        <time>2014-06-11T13:41:22Z</time>
      </trkpt>
      <trkpt lat="46.60749" lon="6.29812">
        <ele>1345.502441</ele>
        <time>2014-06-11T13:41:32Z</time>
      </trkpt>
      <trkpt lat="46.60762" lon="6.29818">
        <ele>1342.618652</ele>
        <time>2014-06-11T13:41:45Z</time>
      </trkpt>
      <trkpt lat="46.60802" lon="6.29849">
        <ele>1338.773193</ele>
        <time>2014-06-11T13:42:28Z</time>
      </trkpt>
      <trkpt lat="46.60811" lon="6.29851">
        <ele>1340.215332</ele>
        <time>2014-06-11T13:42:40Z</time>
      </trkpt>
      <trkpt lat="46.60836" lon="6.29856">
        <ele>1340.215332</ele>
        <time>2014-06-11T13:42:59Z</time>
      </trkpt>
      <trkpt lat="46.60846" lon="6.29842">
        <ele>1338.773193</ele>
        <time>2014-06-11T13:43:15Z</time>
      </trkpt>
      <trkpt lat="46.60866" lon="6.29811">
        <ele>1337.331055</ele>
        <time>2014-06-11T13:43:44Z</time>
      </trkpt>
      <trkpt lat="46.60876" lon="6.29783">
        <ele>1334.447266</ele>
        <time>2014-06-11T13:44:03Z</time>
      </trkpt>
      <trkpt lat="46.60887" lon="6.29761">
        <ele>1335.408447</ele>
        <time>2014-06-11T13:44:24Z</time>
      </trkpt>
      <trkpt lat="46.60893" lon="6.29756">
        <ele>1333.966553</ele>
        <time>2014-06-11T13:44:30Z</time>
      </trkpt>
      <trkpt lat="46.60896" lon="6.29749">
        <ele>1333.48584</ele>
        <time>2014-06-11T13:44:35Z</time>
      </trkpt>
      <trkpt lat="46.60903" lon="6.29729">
        <ele>1335.408447</ele>
        <time>2014-06-11T13:44:48Z</time>
      </trkpt>
      <trkpt lat="46.60912" lon="6.29711">
        <ele>1335.88916</ele>
        <time>2014-06-11T13:45:02Z</time>
      </trkpt>
      <trkpt lat="46.60919" lon="6.29706">
        <ele>1337.331055</ele>
        <time>2014-06-11T13:45:09Z</time>
      </trkpt>
      <trkpt lat="46.60927" lon="6.29701">
        <ele>1337.331055</ele>
        <time>2014-06-11T13:45:14Z</time>
      </trkpt>
      <trkpt lat="46.60937" lon="6.29702">
        <ele>1338.773193</ele>
        <time>2014-06-11T13:45:19Z</time>
      </trkpt>
      <trkpt lat="46.60954" lon="6.29698">
        <ele>1338.29248</ele>
        <time>2014-06-11T13:45:40Z</time>
      </trkpt>
      <trkpt lat="46.60969" lon="6.29682">
        <ele>1339.253662</ele>
        <time>2014-06-11T13:45:55Z</time>
      </trkpt>
      <trkpt lat="46.60977" lon="6.29664">
        <ele>1341.176514</ele>
        <time>2014-06-11T13:46:07Z</time>
      </trkpt>
      <trkpt lat="46.60988" lon="6.29631">
        <ele>1344.060547</ele>
        <time>2014-06-11T13:46:26Z</time>
      </trkpt>
      <trkpt lat="46.60993" lon="6.29613">
        <ele>1344.541016</ele>
        <time>2014-06-11T13:46:39Z</time>
      </trkpt>
      <trkpt lat="46.61008" lon="6.29582">
        <ele>1346.463867</ele>
        <time>2014-06-11T13:46:59Z</time>
      </trkpt>
      <trkpt lat="46.61014" lon="6.29561">
        <ele>1345.021729</ele>
        <time>2014-06-11T13:47:14Z</time>
      </trkpt>
      <trkpt lat="46.61027" lon="6.29497">
        <ele>1339.253662</ele>
        <time>2014-06-11T13:47:55Z</time>
      </trkpt>
      <trkpt lat="46.61027" lon="6.29496">
        <ele>1338.773193</ele>
        <time>2014-06-11T13:47:56Z</time>
      </trkpt>
      <trkpt lat="46.61044" lon="6.29486">
        <ele>1338.29248</ele>
        <time>2014-06-11T13:48:14Z</time>
      </trkpt>
      <trkpt lat="46.61061" lon="6.29473">
        <ele>1334.927979</ele>
        <time>2014-06-11T13:48:26Z</time>
      </trkpt>
      <trkpt lat="46.61077" lon="6.2946">
        <ele>1334.447266</ele>
        <time>2014-06-11T13:48:39Z</time>
      </trkpt>
      <trkpt lat="46.61087" lon="6.29445">
        <ele>1330.602051</ele>
        <time>2014-06-11T13:48:53Z</time>
      </trkpt>
      <trkpt lat="46.61098" lon="6.2943">
        <ele>1330.121338</ele>
        <time>2014-06-11T13:49:05Z</time>
      </trkpt>
      <trkpt lat="46.61099" lon="6.29429">
        <ele>1330.121338</ele>
        <time>2014-06-11T13:49:06Z</time>
      </trkpt>
      <trkpt lat="46.61109" lon="6.29422">
        <ele>1334.447266</ele>
        <time>2014-06-11T13:49:17Z</time>
      </trkpt>
      <trkpt lat="46.6112" lon="6.29415">
        <ele>1335.88916</ele>
        <time>2014-06-11T13:49:47Z</time>
      </trkpt>
      <trkpt lat="46.61135" lon="6.29404">
        <ele>1329.159912</ele>
        <time>2014-06-11T13:49:59Z</time>
      </trkpt>
      <trkpt lat="46.61136" lon="6.29402">
        <ele>1329.159912</ele>
        <time>2014-06-11T13:50:01Z</time>
      </trkpt>
      <trkpt lat="46.61145" lon="6.29391">
        <ele>1328.679443</ele>
        <time>2014-06-11T13:50:11Z</time>
      </trkpt>
      <trkpt lat="46.61147" lon="6.29379">
        <ele>1328.679443</ele>
        <time>2014-06-11T13:50:19Z</time>
      </trkpt>
      <trkpt lat="46.61153" lon="6.2937">
        <ele>1326.756836</ele>
        <time>2014-06-11T13:50:33Z</time>
      </trkpt>
      <trkpt lat="46.6116" lon="6.2935">
        <ele>1327.237549</ele>
        <time>2014-06-11T13:50:51Z</time>
      </trkpt>
      <trkpt lat="46.61162" lon="6.29348">
        <ele>1324.834229</ele>
        <time>2014-06-11T13:50:54Z</time>
      </trkpt>
      <trkpt lat="46.61172" lon="6.2934">
        <ele>1321.469238</ele>
        <time>2014-06-11T13:51:04Z</time>
      </trkpt>
      <trkpt lat="46.6118" lon="6.29322">
        <ele>1318.585449</ele>
        <time>2014-06-11T13:51:18Z</time>
      </trkpt>
      <trkpt lat="46.61182" lon="6.29318">
        <ele>1319.066162</ele>
        <time>2014-06-11T13:51:21Z</time>
      </trkpt>
      <trkpt lat="46.61186" lon="6.29309">
        <ele>1320.027344</ele>
        <time>2014-06-11T13:51:27Z</time>
      </trkpt>
      <trkpt lat="46.61195" lon="6.29283">
        <ele>1324.353516</ele>
        <time>2014-06-11T13:51:41Z</time>
      </trkpt>
      <trkpt lat="46.61198" lon="6.29259">
        <ele>1329.159912</ele>
        <time>2014-06-11T13:51:56Z</time>
      </trkpt>
      <trkpt lat="46.61207" lon="6.29235">
        <ele>1335.88916</ele>
        <time>2014-06-11T13:52:12Z</time>
      </trkpt>
      <trkpt lat="46.61206" lon="6.2923">
        <ele>1332.043945</ele>
        <time>2014-06-11T13:52:27Z</time>
      </trkpt>
      <trkpt lat="46.61213" lon="6.29208">
        <ele>1331.082764</ele>
        <time>2014-06-11T13:52:39Z</time>
      </trkpt>
      <trkpt lat="46.61214" lon="6.29201">
        <ele>1333.005127</ele>
        <time>2014-06-11T13:52:43Z</time>
      </trkpt>
      <trkpt lat="46.61216" lon="6.29189">
        <ele>1333.966553</ele>
        <time>2014-06-11T13:52:50Z</time>
      </trkpt>
      <trkpt lat="46.61221" lon="6.29173">
        <ele>1332.524658</ele>
        <time>2014-06-11T13:53:01Z</time>
      </trkpt>
      <trkpt lat="46.61223" lon="6.29169">
        <ele>1333.48584</ele>
        <time>2014-06-11T13:53:04Z</time>
      </trkpt>
      <trkpt lat="46.61238" lon="6.29167">
        <ele>1333.48584</ele>
        <time>2014-06-11T13:53:21Z</time>
      </trkpt>
      <trkpt lat="46.61246" lon="6.29162">
        <ele>1334.927979</ele>
        <time>2014-06-11T13:53:40Z</time>
      </trkpt>
      <trkpt lat="46.61244" lon="6.29165">
        <ele>1335.408447</ele>
        <time>2014-06-11T13:54:01Z</time>
      </trkpt>
      <trkpt lat="46.6127" lon="6.2915">
        <ele>1312.817627</ele>
        <time>2014-06-11T14:08:07Z</time>
      </trkpt>
      <trkpt lat="46.6128" lon="6.29135">
        <ele>1316.662842</ele>
        <time>2014-06-11T14:08:31Z</time>
      </trkpt>
      <trkpt lat="46.61288" lon="6.29127">
        <ele>1317.624023</ele>
        <time>2014-06-11T14:08:39Z</time>
      </trkpt>
      <trkpt lat="46.61301" lon="6.29107">
        <ele>1319.066162</ele>
        <time>2014-06-11T14:08:54Z</time>
      </trkpt>
      <trkpt lat="46.61303" lon="6.29104">
        <ele>1319.546875</ele>
        <time>2014-06-11T14:08:57Z</time>
      </trkpt>
      <trkpt lat="46.61311" lon="6.29098">
        <ele>1320.508057</ele>
        <time>2014-06-11T14:09:03Z</time>
      </trkpt>
      <trkpt lat="46.61319" lon="6.29083">
        <ele>1323.872559</ele>
        <time>2014-06-11T14:09:21Z</time>
      </trkpt>
      <trkpt lat="46.61319" lon="6.29073">
        <ele>1325.79541</ele>
        <time>2014-06-11T14:09:26Z</time>
      </trkpt>
      <trkpt lat="46.61323" lon="6.29052">
        <ele>1329.159912</ele>
        <time>2014-06-11T14:09:38Z</time>
      </trkpt>
      <trkpt lat="46.61324" lon="6.29046">
        <ele>1330.121338</ele>
        <time>2014-06-11T14:09:41Z</time>
      </trkpt>
      <trkpt lat="46.61324" lon="6.2904">
        <ele>1332.524658</ele>
        <time>2014-06-11T14:09:45Z</time>
      </trkpt>
      <trkpt lat="46.61325" lon="6.29012">
        <ele>1338.773193</ele>
        <time>2014-06-11T14:09:57Z</time>
      </trkpt>
      <trkpt lat="46.6133" lon="6.28996">
        <ele>1340.695801</ele>
        <time>2014-06-11T14:10:04Z</time>
      </trkpt>
      <trkpt lat="46.61333" lon="6.28991">
        <ele>1342.618652</ele>
        <time>2014-06-11T14:10:08Z</time>
      </trkpt>
      <trkpt lat="46.61331" lon="6.28959">
        <ele>1346.944336</ele>
        <time>2014-06-11T14:10:24Z</time>
      </trkpt>
      <trkpt lat="46.61331" lon="6.28953">
        <ele>1347.905762</ele>
        <time>2014-06-11T14:10:27Z</time>
      </trkpt>
      <trkpt lat="46.61333" lon="6.28947">
        <ele>1348.866943</ele>
        <time>2014-06-11T14:10:31Z</time>
      </trkpt>
      <trkpt lat="46.61337" lon="6.28936">
        <ele>1351.750977</ele>
        <time>2014-06-11T14:10:39Z</time>
      </trkpt>
      <trkpt lat="46.61341" lon="6.28925">
        <ele>1354.634766</ele>
        <time>2014-06-11T14:10:45Z</time>
      </trkpt>
      <trkpt lat="46.61341" lon="6.28916">
        <ele>1355.596191</ele>
        <time>2014-06-11T14:10:49Z</time>
      </trkpt>
      <trkpt lat="46.61343" lon="6.28912">
        <ele>1356.076904</ele>
        <time>2014-06-11T14:10:51Z</time>
      </trkpt>
      <trkpt lat="46.61346" lon="6.28904">
        <ele>1359.922119</ele>
        <time>2014-06-11T14:10:57Z</time>
      </trkpt>
      <trkpt lat="46.61354" lon="6.28891">
        <ele>1364.72876</ele>
        <time>2014-06-11T14:11:08Z</time>
      </trkpt>
      <trkpt lat="46.61361" lon="6.28883">
        <ele>1365.690186</ele>
        <time>2014-06-11T14:11:17Z</time>
      </trkpt>
      <trkpt lat="46.61369" lon="6.2886">
        <ele>1357.519043</ele>
        <time>2014-06-11T14:11:29Z</time>
      </trkpt>
      <trkpt lat="46.61373" lon="6.28853">
        <ele>1356.557617</ele>
        <time>2014-06-11T14:11:33Z</time>
      </trkpt>
      <trkpt lat="46.61388" lon="6.28835">
        <ele>1353.192871</ele>
        <time>2014-06-11T14:11:48Z</time>
      </trkpt>
      <trkpt lat="46.61401" lon="6.28821">
        <ele>1354.154297</ele>
        <time>2014-06-11T14:12:00Z</time>
      </trkpt>
      <trkpt lat="46.61402" lon="6.28813">
        <ele>1353.673584</ele>
        <time>2014-06-11T14:12:03Z</time>
      </trkpt>
      <trkpt lat="46.61404" lon="6.28803">
        <ele>1356.076904</ele>
        <time>2014-06-11T14:12:08Z</time>
      </trkpt>
      <trkpt lat="46.61411" lon="6.28785">
        <ele>1359.44165</ele>
        <time>2014-06-11T14:12:21Z</time>
      </trkpt>
      <trkpt lat="46.61427" lon="6.28769">
        <ele>1361.844971</ele>
        <time>2014-06-11T14:12:34Z</time>
      </trkpt>
      <trkpt lat="46.6144" lon="6.28754">
        <ele>1364.72876</ele>
        <time>2014-06-11T14:12:47Z</time>
      </trkpt>
      <trkpt lat="46.61442" lon="6.28752">
        <ele>1365.209473</ele>
        <time>2014-06-11T14:12:48Z</time>
      </trkpt>
      <trkpt lat="46.61444" lon="6.28751">
        <ele>1364.72876</ele>
        <time>2014-06-11T14:12:50Z</time>
      </trkpt>
      <trkpt lat="46.61456" lon="6.28755">
        <ele>1359.922119</ele>
        <time>2014-06-11T14:13:02Z</time>
      </trkpt>
      <trkpt lat="46.61464" lon="6.28749">
        <ele>1358.480225</ele>
        <time>2014-06-11T14:13:10Z</time>
      </trkpt>
      <trkpt lat="46.61478" lon="6.28731">
        <ele>1355.115479</ele>
        <time>2014-06-11T14:13:25Z</time>
      </trkpt>
      <trkpt lat="46.61483" lon="6.28718">
        <ele>1353.192871</ele>
        <time>2014-06-11T14:13:35Z</time>
      </trkpt>
      <trkpt lat="46.61487" lon="6.28705">
        <ele>1352.231445</ele>
        <time>2014-06-11T14:13:44Z</time>
      </trkpt>
      <trkpt lat="46.61494" lon="6.28689">
        <ele>1351.270264</ele>
        <time>2014-06-11T14:13:53Z</time>
      </trkpt>
      <trkpt lat="46.61514" lon="6.28681">
        <ele>1343.579834</ele>
        <time>2014-06-11T14:14:13Z</time>
      </trkpt>
      <trkpt lat="46.61516" lon="6.2868">
        <ele>1342.137939</ele>
        <time>2014-06-11T14:14:14Z</time>
      </trkpt>
      <trkpt lat="46.61518" lon="6.2868">
        <ele>1340.695801</ele>
        <time>2014-06-11T14:14:16Z</time>
      </trkpt>
      <trkpt lat="46.61528" lon="6.28663">
        <ele>1333.005127</ele>
        <time>2014-06-11T14:14:31Z</time>
      </trkpt>
      <trkpt lat="46.61535" lon="6.28653">
        <ele>1332.043945</ele>
        <time>2014-06-11T14:14:41Z</time>
      </trkpt>
      <trkpt lat="46.61543" lon="6.28649">
        <ele>1331.563232</ele>
        <time>2014-06-11T14:14:50Z</time>
      </trkpt>
      <trkpt lat="46.61552" lon="6.28629">
        <ele>1329.640625</ele>
        <time>2014-06-11T14:15:05Z</time>
      </trkpt>
      <trkpt lat="46.61559" lon="6.28611">
        <ele>1329.159912</ele>
        <time>2014-06-11T14:15:15Z</time>
      </trkpt>
      <trkpt lat="46.61561" lon="6.28611">
        <ele>1328.679443</ele>
        <time>2014-06-11T14:15:17Z</time>
      </trkpt>
      <trkpt lat="46.6157" lon="6.28604">
        <ele>1325.79541</ele>
        <time>2014-06-11T14:15:26Z</time>
      </trkpt>
      <trkpt lat="46.61577" lon="6.28599">
        <ele>1318.585449</ele>
        <time>2014-06-11T14:15:37Z</time>
      </trkpt>
      <trkpt lat="46.61601" lon="6.28581">
        <ele>1314.740234</ele>
        <time>2014-06-11T14:15:59Z</time>
      </trkpt>
      <trkpt lat="46.61609" lon="6.28572">
        <ele>1310.414307</ele>
        <time>2014-06-11T14:16:11Z</time>
      </trkpt>
      <trkpt lat="46.6161" lon="6.28558">
        <ele>1309.453125</ele>
        <time>2014-06-11T14:16:20Z</time>
      </trkpt>
      <trkpt lat="46.61611" lon="6.28539">
        <ele>1306.088135</ele>
        <time>2014-06-11T14:16:32Z</time>
      </trkpt>
      <trkpt lat="46.61612" lon="6.28533">
        <ele>1305.607666</ele>
        <time>2014-06-11T14:16:36Z</time>
      </trkpt>
      <trkpt lat="46.61612" lon="6.28529">
        <ele>1305.126953</ele>
        <time>2014-06-11T14:16:38Z</time>
      </trkpt>
      <trkpt lat="46.61612" lon="6.28507">
        <ele>1296.955811</ele>
        <time>2014-06-11T14:16:51Z</time>
      </trkpt>
      <trkpt lat="46.61609" lon="6.28493">
        <ele>1295.033203</ele>
        <time>2014-06-11T14:17:02Z</time>
      </trkpt>
      <trkpt lat="46.61611" lon="6.28477">
        <ele>1292.630127</ele>
        <time>2014-06-11T14:17:14Z</time>
      </trkpt>
      <trkpt lat="46.6161" lon="6.28475">
        <ele>1293.591309</ele>
        <time>2014-06-11T14:17:15Z</time>
      </trkpt>
      <trkpt lat="46.61614" lon="6.2845">
        <ele>1292.149414</ele>
        <time>2014-06-11T14:17:29Z</time>
      </trkpt>
      <trkpt lat="46.61619" lon="6.28425">
        <ele>1293.110596</ele>
        <time>2014-06-11T14:17:43Z</time>
      </trkpt>
      <trkpt lat="46.61619" lon="6.28417">
        <ele>1295.513916</ele>
        <time>2014-06-11T14:17:47Z</time>
      </trkpt>
      <trkpt lat="46.61621" lon="6.28393">
        <ele>1293.591309</ele>
        <time>2014-06-11T14:17:59Z</time>
      </trkpt>
      <trkpt lat="46.61621" lon="6.28387">
        <ele>1294.072021</ele>
        <time>2014-06-11T14:18:03Z</time>
      </trkpt>
      <trkpt lat="46.61617" lon="6.28376">
        <ele>1294.072021</ele>
        <time>2014-06-11T14:18:10Z</time>
      </trkpt>
      <trkpt lat="46.61614" lon="6.28366">
        <ele>1294.072021</ele>
        <time>2014-06-11T14:18:15Z</time>
      </trkpt>
      <trkpt lat="46.61613" lon="6.28358">
        <ele>1294.072021</ele>
        <time>2014-06-11T14:18:20Z</time>
      </trkpt>
      <trkpt lat="46.61608" lon="6.28354">
        <ele>1294.072021</ele>
        <time>2014-06-11T14:18:24Z</time>
      </trkpt>
      <trkpt lat="46.61602" lon="6.28336">
        <ele>1296.955811</ele>
        <time>2014-06-11T14:18:36Z</time>
      </trkpt>
      <trkpt lat="46.61589" lon="6.28322">
        <ele>1297.917236</ele>
        <time>2014-06-11T14:18:49Z</time>
      </trkpt>
      <trkpt lat="46.61587" lon="6.28313">
        <ele>1298.397705</ele>
        <time>2014-06-11T14:18:54Z</time>
      </trkpt>
      <trkpt lat="46.61577" lon="6.28289">
        <ele>1295.033203</ele>
        <time>2014-06-11T14:19:07Z</time>
      </trkpt>
      <trkpt lat="46.61571" lon="6.28284">
        <ele>1293.110596</ele>
        <time>2014-06-11T14:19:18Z</time>
      </trkpt>
      <trkpt lat="46.61567" lon="6.28274">
        <ele>1293.110596</ele>
        <time>2014-06-11T14:19:24Z</time>
      </trkpt>
      <trkpt lat="46.61557" lon="6.28253">
        <ele>1294.55249</ele>
        <time>2014-06-11T14:19:38Z</time>
      </trkpt>
      <trkpt lat="46.61552" lon="6.28245">
        <ele>1296.475342</ele>
        <time>2014-06-11T14:19:44Z</time>
      </trkpt>
      <trkpt lat="46.61551" lon="6.28242">
        <ele>1296.475342</ele>
        <time>2014-06-11T14:19:46Z</time>
      </trkpt>
      <trkpt lat="46.61546" lon="6.28233">
        <ele>1295.513916</ele>
        <time>2014-06-11T14:19:53Z</time>
      </trkpt>
      <trkpt lat="46.61542" lon="6.2822">
        <ele>1297.436523</ele>
        <time>2014-06-11T14:20:00Z</time>
      </trkpt>
      <trkpt lat="46.61536" lon="6.28214">
        <ele>1295.994629</ele>
        <time>2014-06-11T14:20:16Z</time>
      </trkpt>
      <trkpt lat="46.61532" lon="6.28208">
        <ele>1293.591309</ele>
        <time>2014-06-11T14:20:31Z</time>
      </trkpt>
      <trkpt lat="46.61526" lon="6.28197">
        <ele>1290.226563</ele>
        <time>2014-06-11T14:20:39Z</time>
      </trkpt>
      <trkpt lat="46.61515" lon="6.28177">
        <ele>1288.303955</ele>
        <time>2014-06-11T14:20:52Z</time>
      </trkpt>
      <trkpt lat="46.61507" lon="6.28164">
        <ele>1286.381348</ele>
        <time>2014-06-11T14:21:01Z</time>
      </trkpt>
      <trkpt lat="46.61502" lon="6.28159">
        <ele>1285.900635</ele>
        <time>2014-06-11T14:21:06Z</time>
      </trkpt>
      <trkpt lat="46.61497" lon="6.28144">
        <ele>1283.016602</ele>
        <time>2014-06-11T14:21:15Z</time>
      </trkpt>
      <trkpt lat="46.61489" lon="6.28125">
        <ele>1284.939453</ele>
        <time>2014-06-11T14:21:28Z</time>
      </trkpt>
      <trkpt lat="46.61488" lon="6.28121">
        <ele>1284.45874</ele>
        <time>2014-06-11T14:21:30Z</time>
      </trkpt>
      <trkpt lat="46.61485" lon="6.28106">
        <ele>1285.419922</ele>
        <time>2014-06-11T14:21:40Z</time>
      </trkpt>
      <trkpt lat="46.61483" lon="6.28097">
        <ele>1286.381348</ele>
        <time>2014-06-11T14:21:44Z</time>
      </trkpt>
      <trkpt lat="46.61483" lon="6.28092">
        <ele>1286.381348</ele>
        <time>2014-06-11T14:21:47Z</time>
      </trkpt>
      <trkpt lat="46.61483" lon="6.2808">
        <ele>1283.978027</ele>
        <time>2014-06-11T14:21:52Z</time>
      </trkpt>
      <trkpt lat="46.61482" lon="6.28075">
        <ele>1284.45874</ele>
        <time>2014-06-11T14:21:55Z</time>
      </trkpt>
      <trkpt lat="46.61479" lon="6.28051">
        <ele>1282.536133</ele>
        <time>2014-06-11T14:22:07Z</time>
      </trkpt>
      <trkpt lat="46.61474" lon="6.28041">
        <ele>1278.690918</ele>
        <time>2014-06-11T14:22:18Z</time>
      </trkpt>
      <trkpt lat="46.61477" lon="6.28036">
        <ele>1277.729492</ele>
        <time>2014-06-11T14:22:29Z</time>
      </trkpt>
      <trkpt lat="46.61476" lon="6.28029">
        <ele>1277.729492</ele>
        <time>2014-06-11T14:22:58Z</time>
      </trkpt>
      <trkpt lat="46.61475" lon="6.28027">
        <ele>1276.768311</ele>
        <time>2014-06-11T14:23:13Z</time>
      </trkpt>
      <trkpt lat="46.61472" lon="6.2803">
        <ele>1274.845459</ele>
        <time>2014-06-11T14:23:38Z</time>
      </trkpt>
      <trkpt lat="46.61477" lon="6.28037">
        <ele>1271.961426</ele>
        <time>2014-06-11T14:25:32Z</time>
      </trkpt>
      <trkpt lat="46.61476" lon="6.28037">
        <ele>1271.961426</ele>
        <time>2014-06-11T14:25:51Z</time>
      </trkpt>
      <trkpt lat="46.61476" lon="6.28039">
        <ele>1271.961426</ele>
        <time>2014-06-11T14:26:26Z</time>
      </trkpt>
      <trkpt lat="46.61471" lon="6.28026">
        <ele>1271.000244</ele>
        <time>2014-06-11T14:27:17Z</time>
      </trkpt>
      <trkpt lat="46.61468" lon="6.28019">
        <ele>1271.000244</ele>
        <time>2014-06-11T14:27:32Z</time>
      </trkpt>
      <trkpt lat="46.61467" lon="6.28022">
        <ele>1269.077637</ele>
        <time>2014-06-11T14:27:56Z</time>
      </trkpt>
      <trkpt lat="46.61465" lon="6.27999">
        <ele>1267.155029</ele>
        <time>2014-06-11T14:28:18Z</time>
      </trkpt>
      <trkpt lat="46.6146" lon="6.27975">
        <ele>1262.348389</ele>
        <time>2014-06-11T14:28:32Z</time>
      </trkpt>
      <trkpt lat="46.61461" lon="6.27951">
        <ele>1261.387207</ele>
        <time>2014-06-11T14:28:53Z</time>
      </trkpt>
      <trkpt lat="46.61462" lon="6.27949">
        <ele>1261.387207</ele>
        <time>2014-06-11T14:28:55Z</time>
      </trkpt>
      <trkpt lat="46.61465" lon="6.27928">
        <ele>1259.464355</ele>
        <time>2014-06-11T14:29:14Z</time>
      </trkpt>
      <trkpt lat="46.61474" lon="6.27909">
        <ele>1258.022461</ele>
        <time>2014-06-11T14:29:27Z</time>
      </trkpt>
      <trkpt lat="46.6148" lon="6.27899">
        <ele>1253.696533</ele>
        <time>2014-06-11T14:29:37Z</time>
      </trkpt>
      <trkpt lat="46.61482" lon="6.27876">
        <ele>1250.332031</ele>
        <time>2014-06-11T14:29:56Z</time>
      </trkpt>
      <trkpt lat="46.6148" lon="6.27838">
        <ele>1247.447998</ele>
        <time>2014-06-11T14:30:16Z</time>
      </trkpt>
      <trkpt lat="46.61479" lon="6.27827">
        <ele>1247.928711</ele>
        <time>2014-06-11T14:30:22Z</time>
      </trkpt>
      <trkpt lat="46.61491" lon="6.27804">
        <ele>1248.40918</ele>
        <time>2014-06-11T14:30:40Z</time>
      </trkpt>
      <trkpt lat="46.61509" lon="6.27826">
        <ele>1242.641357</ele>
        <time>2014-06-11T14:30:53Z</time>
      </trkpt>
      <trkpt lat="46.61518" lon="6.27837">
        <ele>1237.354004</ele>
        <time>2014-06-11T14:31:05Z</time>
      </trkpt>
      <trkpt lat="46.61534" lon="6.2785">
        <ele>1230.144287</ele>
        <time>2014-06-11T14:31:18Z</time>
      </trkpt>
      <trkpt lat="46.61541" lon="6.27861">
        <ele>1227.260254</ele>
        <time>2014-06-11T14:31:30Z</time>
      </trkpt>
      <trkpt lat="46.61542" lon="6.27863">
        <ele>1222.453613</ele>
        <time>2014-06-11T14:31:35Z</time>
      </trkpt>
      <trkpt lat="46.61555" lon="6.27862">
        <ele>1214.282471</ele>
        <time>2014-06-11T14:31:49Z</time>
      </trkpt>
      <trkpt lat="46.61556" lon="6.27868">
        <ele>1212.840576</ele>
        <time>2014-06-11T14:32:11Z</time>
      </trkpt>
      <trkpt lat="46.61566" lon="6.27881">
        <ele>1208.995117</ele>
        <time>2014-06-11T14:32:38Z</time>
      </trkpt>
      <trkpt lat="46.6157" lon="6.2789">
        <ele>1208.033936</ele>
        <time>2014-06-11T14:32:45Z</time>
      </trkpt>
      <trkpt lat="46.61583" lon="6.27904">
        <ele>1208.514404</ele>
        <time>2014-06-11T14:32:58Z</time>
      </trkpt>
      <trkpt lat="46.6159" lon="6.27905">
        <ele>1208.995117</ele>
        <time>2014-06-11T14:33:03Z</time>
      </trkpt>
      <trkpt lat="46.61595" lon="6.27907">
        <ele>1209.47583</ele>
        <time>2014-06-11T14:33:07Z</time>
      </trkpt>
      <trkpt lat="46.61617" lon="6.27917">
        <ele>1215.243896</ele>
        <time>2014-06-11T14:33:23Z</time>
      </trkpt>
      <trkpt lat="46.61638" lon="6.27923">
        <ele>1218.608398</ele>
        <time>2014-06-11T14:33:34Z</time>
      </trkpt>
      <trkpt lat="46.61657" lon="6.27931">
        <ele>1213.801758</ele>
        <time>2014-06-11T14:33:49Z</time>
      </trkpt>
      <trkpt lat="46.6166" lon="6.27929">
        <ele>1214.282471</ele>
        <time>2014-06-11T14:33:59Z</time>
      </trkpt>
      <trkpt lat="46.61652" lon="6.27855">
        <ele>1207.07251</ele>
        <time>2014-06-11T14:36:01Z</time>
      </trkpt>
      <trkpt lat="46.61649" lon="6.27812">
        <ele>1208.033936</ele>
        <time>2014-06-11T14:36:30Z</time>
      </trkpt>
      <trkpt lat="46.61649" lon="6.27765">
        <ele>1206.111084</ele>
        <time>2014-06-11T14:37:01Z</time>
      </trkpt>
      <trkpt lat="46.61647" lon="6.27737">
        <ele>1201.304688</ele>
        <time>2014-06-11T14:37:27Z</time>
      </trkpt>
      <trkpt lat="46.6167" lon="6.2772">
        <ele>1189.288086</ele>
        <time>2014-06-11T14:38:07Z</time>
      </trkpt>
      <trkpt lat="46.61679" lon="6.27708">
        <ele>1182.078369</ele>
        <time>2014-06-11T14:38:30Z</time>
      </trkpt>
      <trkpt lat="46.61679" lon="6.27706">
        <ele>1181.117188</ele>
        <time>2014-06-11T14:38:33Z</time>
      </trkpt>
      <trkpt lat="46.6168" lon="6.27688">
        <ele>1169.100586</ele>
        <time>2014-06-11T14:38:51Z</time>
      </trkpt>
      <trkpt lat="46.61682" lon="6.27683">
        <ele>1167.658447</ele>
        <time>2014-06-11T14:38:55Z</time>
      </trkpt>
      <trkpt lat="46.61694" lon="6.27666">
        <ele>1162.371094</ele>
        <time>2014-06-11T14:39:19Z</time>
      </trkpt>
      <trkpt lat="46.61708" lon="6.27636">
        <ele>1155.161377</ele>
        <time>2014-06-11T14:39:47Z</time>
      </trkpt>
      <trkpt lat="46.61713" lon="6.2762">
        <ele>1153.23877</ele>
        <time>2014-06-11T14:40:00Z</time>
      </trkpt>
      <trkpt lat="46.61716" lon="6.27606">
        <ele>1150.835449</ele>
        <time>2014-06-11T14:40:13Z</time>
      </trkpt>
      <trkpt lat="46.61717" lon="6.27603">
        <ele>1149.874268</ele>
        <time>2014-06-11T14:40:16Z</time>
      </trkpt>
      <trkpt lat="46.61723" lon="6.27587">
        <ele>1146.98999</ele>
        <time>2014-06-11T14:40:27Z</time>
      </trkpt>
      <trkpt lat="46.61734" lon="6.27568">
        <ele>1145.067383</ele>
        <time>2014-06-11T14:40:46Z</time>
      </trkpt>
      <trkpt lat="46.61735" lon="6.27564">
        <ele>1143.625488</ele>
        <time>2014-06-11T14:40:49Z</time>
      </trkpt>
      <trkpt lat="46.61737" lon="6.27558">
        <ele>1140.741455</ele>
        <time>2014-06-11T14:40:51Z</time>
      </trkpt>
      <trkpt lat="46.61732" lon="6.27552">
        <ele>1139.299561</ele>
        <time>2014-06-11T14:40:57Z</time>
      </trkpt>
      <trkpt lat="46.61725" lon="6.27542">
        <ele>1136.415771</ele>
        <time>2014-06-11T14:41:07Z</time>
      </trkpt>
      <trkpt lat="46.61717" lon="6.2752">
        <ele>1133.051025</ele>
        <time>2014-06-11T14:41:23Z</time>
      </trkpt>
      <trkpt lat="46.61711" lon="6.27501">
        <ele>1131.128418</ele>
        <time>2014-06-11T14:41:36Z</time>
      </trkpt>
      <trkpt lat="46.61705" lon="6.2749">
        <ele>1130.647705</ele>
        <time>2014-06-11T14:41:48Z</time>
      </trkpt>
      <trkpt lat="46.61694" lon="6.27474">
        <ele>1132.089844</ele>
        <time>2014-06-11T14:41:59Z</time>
      </trkpt>
      <trkpt lat="46.61675" lon="6.27464">
        <ele>1134.012451</ele>
        <time>2014-06-11T14:42:15Z</time>
      </trkpt>
      <trkpt lat="46.61664" lon="6.27455">
        <ele>1138.819092</ele>
        <time>2014-06-11T14:42:28Z</time>
      </trkpt>
      <trkpt lat="46.61659" lon="6.27455">
        <ele>1138.819092</ele>
        <time>2014-06-11T14:42:33Z</time>
      </trkpt>
      <trkpt lat="46.61648" lon="6.27449">
        <ele>1141.702881</ele>
        <time>2014-06-11T14:42:43Z</time>
      </trkpt>
      <trkpt lat="46.61636" lon="6.27441">
        <ele>1144.106201</ele>
        <time>2014-06-11T14:42:57Z</time>
      </trkpt>
      <trkpt lat="46.6163" lon="6.27439">
        <ele>1146.028809</ele>
        <time>2014-06-11T14:43:03Z</time>
      </trkpt>
      <trkpt lat="46.6163" lon="6.27437">
        <ele>1146.509521</ele>
        <time>2014-06-11T14:43:05Z</time>
      </trkpt>
      <trkpt lat="46.61619" lon="6.27432">
        <ele>1147.951416</ele>
        <time>2014-06-11T14:43:15Z</time>
      </trkpt>
      <trkpt lat="46.61604" lon="6.27424">
        <ele>1149.393555</ele>
        <time>2014-06-11T14:43:29Z</time>
      </trkpt>
      <trkpt lat="46.61594" lon="6.27419">
        <ele>1152.277344</ele>
        <time>2014-06-11T14:43:39Z</time>
      </trkpt>
      <trkpt lat="46.61593" lon="6.27417">
        <ele>1153.23877</ele>
        <time>2014-06-11T14:43:41Z</time>
      </trkpt>
      <trkpt lat="46.61592" lon="6.27413">
        <ele>1154.200195</ele>
        <time>2014-06-11T14:43:44Z</time>
      </trkpt>
      <trkpt lat="46.6158" lon="6.27402">
        <ele>1155.161377</ele>
        <time>2014-06-11T14:43:55Z</time>
      </trkpt>
      <trkpt lat="46.61578" lon="6.27399">
        <ele>1155.64209</ele>
        <time>2014-06-11T14:43:57Z</time>
      </trkpt>
      <trkpt lat="46.61566" lon="6.27385">
        <ele>1159.006592</ele>
        <time>2014-06-11T14:44:10Z</time>
      </trkpt>
      <trkpt lat="46.61557" lon="6.27372">
        <ele>1160.929199</ele>
        <time>2014-06-11T14:44:22Z</time>
      </trkpt>
      <trkpt lat="46.61552" lon="6.27365">
        <ele>1160.929199</ele>
        <time>2014-06-11T14:44:27Z</time>
      </trkpt>
      <trkpt lat="46.61545" lon="6.27354">
        <ele>1156.122559</ele>
        <time>2014-06-11T14:44:37Z</time>
      </trkpt>
      <trkpt lat="46.61544" lon="6.27353">
        <ele>1155.64209</ele>
        <time>2014-06-11T14:44:38Z</time>
      </trkpt>
      <trkpt lat="46.61542" lon="6.27349">
        <ele>1155.64209</ele>
        <time>2014-06-11T14:44:42Z</time>
      </trkpt>
      <trkpt lat="46.61531" lon="6.27341">
        <ele>1155.161377</ele>
        <time>2014-06-11T14:44:52Z</time>
      </trkpt>
      <trkpt lat="46.6152" lon="6.2734">
        <ele>1154.200195</ele>
        <time>2014-06-11T14:45:03Z</time>
      </trkpt>
      <trkpt lat="46.61514" lon="6.27341">
        <ele>1155.161377</ele>
        <time>2014-06-11T14:45:09Z</time>
      </trkpt>
    </trkseg>
  </trk>
</gpx>